Observation data for Happy on 01/13/2021      Previous  Date  Next       Current Mesonet Observations  Soil Data  Daily Summary Page  Observations in Plain Language
KHA2 130600Z 26011KT M01/M03 A3016 RMK A01 T10111032  RH  086%=      5-min Rain = 0
KHA2 130601Z 26011KT M01/M03 A3016 RMK A01 T10111033  RH  085%=      5-min Rain = 0
KHA2 130602Z 26012KT M01/M03 A3016 RMK A01 T10101033  RH  085%=      5-min Rain = 0
KHA2 130603Z 26011KT M01/M03 A3016 RMK A01 T10101033  RH  085%=      5-min Rain = 0
KHA2 130604Z 26011KT M01/M03 A3016 RMK A01 T10101033  RH  084%=      5-min Rain = 0
KHA2 130605Z 26011KT M01/M03 A3016 RMK A01 T10101033  RH  084%=      5-min Rain = 0
KHA2 130606Z 26011KT M01/M03 A3016 RMK A01 T10101033  RH  084%=      5-min Rain = 0
KHA2 130607Z 26011KT M01/M03 A3016 RMK A01 T10101033  RH  084%=      5-min Rain = 0
KHA2 130608Z 26010KT M01/M03 A3016 RMK A01 T10101034  RH  084%=      5-min Rain = 0
KHA2 130609Z 26011KT M01/M03 A3016 RMK A01 T10101034  RH  084%=      5-min Rain = 0
KHA2 130610Z 26011KT M01/M03 A3016 RMK A01 T10101034  RH  084%=      5-min Rain = 0
KHA2 130611Z 26011KT M01/M04 A3016 RMK A01 T10101035  RH  083%=      5-min Rain = 0
KHA2 130612Z 26010KT M01/M04 A3015 RMK A01 T10111036  RH  083%=      5-min Rain = 0
KHA2 130613Z 26010KT M01/M04 A3015 RMK A01 T10111036  RH  083%=      5-min Rain = 0
KHA2 130614Z 26010KT M01/M04 A3015 RMK A01 T10121037  RH  083%=      5-min Rain = 0
KHA2 130615Z 26010KT M01/M04 A3015 RMK A01 T10131037  RH  083%=      5-min Rain = 0
KHA2 130616Z 26010KT M01/M04 A3015 RMK A01 T10121037  RH  083%=      5-min Rain = 0
KHA2 130617Z 26011KT M01/M04 A3015 RMK A01 T10121037  RH  083%=      5-min Rain = 0
KHA2 130618Z 26011KT M01/M04 A3015 RMK A01 T10111037  RH  083%=      5-min Rain = 0
KHA2 130619Z 26011KT M01/M04 A3015 RMK A01 T10111037  RH  082%=      5-min Rain = 0
KHA2 130620Z 26010KT M01/M04 A3015 RMK A01 T10111038  RH  082%=      5-min Rain = 0
KHA2 130621Z 26011KT M01/M04 A3015 RMK A01 T10111038  RH  082%=      5-min Rain = 0
KHA2 130622Z 26011KT M01/M04 A3015 RMK A01 T10101038  RH  081%=      5-min Rain = 0
KHA2 130623Z 26011KT M01/M04 A3015 RMK A01 T10101039  RH  081%=      5-min Rain = 0
KHA2 130624Z 26010KT M01/M04 A3015 RMK A01 T10101039  RH  081%=      5-min Rain = 0
KHA2 130625Z 26011KT M01/M04 A3015 RMK A01 T10101039  RH  080%=      5-min Rain = 0
KHA2 130626Z 26011KT M01/M04 A3015 RMK A01 T10091039  RH  080%=      5-min Rain = 0
KHA2 130627Z 26011KT M01/M04 A3015 RMK A01 T10081039  RH  079%=      5-min Rain = 0
KHA2 130628Z 26011KT M01/M04 A3015 RMK A01 T10071040  RH  079%=      5-min Rain = 0
KHA2 130629Z 26010KT M01/M04 A3015 RMK A01 T10071041  RH  078%=      5-min Rain = 0
KHA2 130630Z 26010KT M01/M04 A3015 RMK A01 T10081042  RH  078%=      5-min Rain = 0
KHA2 130631Z 26009KT M01/M04 A3015 RMK A01 T10091042  RH  078%=      5-min Rain = 0
KHA2 130632Z 26010KT M01/M04 A3015 RMK A01 T10091042  RH  078%=      5-min Rain = 0
KHA2 130633Z 26011KT M01/M04 A3015 RMK A01 T10081042  RH  078%=      5-min Rain = 0
KHA2 130634Z 26011KT M01/M04 A3015 RMK A01 T10071041  RH  078%=      5-min Rain = 0
KHA2 130635Z 26011KT M01/M04 A3015 RMK A01 T10071042  RH  077%=      5-min Rain = 0
KHA2 130636Z 26010KT M01/M04 A3015 RMK A01 T10071042  RH  077%=      5-min Rain = 0
KHA2 130637Z 26010KT M01/M04 A3015 RMK A01 T10071043  RH  077%=      5-min Rain = 0
KHA2 130638Z 26011KT M01/M04 A3015 RMK A01 T10071043  RH  077%=      5-min Rain = 0
KHA2 130639Z 26011KT M01/M04 A3015 RMK A01 T10071043  RH  077%=      5-min Rain = 0
KHA2 130640Z 26011KT M01/M04 A3015 RMK A01 T10071043  RH  077%=      5-min Rain = 0
KHA2 130641Z 26011KT M01/M04 A3015 RMK A01 T10071043  RH  077%=      5-min Rain = 0
KHA2 130642Z 26011KT M01/M04 A3015 RMK A01 T10071043  RH  077%=      5-min Rain = 0
KHA2 130643Z 26010KT M01/M04 A3015 RMK A01 T10071043  RH  077%=      5-min Rain = 0
KHA2 130644Z 26010KT M01/M04 A3015 RMK A01 T10081043  RH  077%=      5-min Rain = 0
KHA2 130645Z 26010KT M01/M04 A3015 RMK A01 T10081043  RH  077%=      5-min Rain = 0
KHA2 130646Z 26010KT M01/M04 A3015 RMK A01 T10081043  RH  077%=      5-min Rain = 0
KHA2 130647Z 27011KT M01/M04 A3015 RMK A01 T10081043  RH  077%=      5-min Rain = 0
KHA2 130648Z 26011KT M01/M04 A3015 RMK A01 T10081043  RH  077%=      5-min Rain = 0
KHA2 130649Z 26011KT M01/M04 A3015 RMK A01 T10081043  RH  077%=      5-min Rain = 0
KHA2 130650Z 26011KT M01/M04 A3015 RMK A01 T10081043  RH  077%=      5-min Rain = 0
KHA2 130651Z 26011KT M01/M04 A3015 RMK A01 T10081043  RH  077%=      5-min Rain = 0
KHA2 130652Z 26011KT M01/M04 A3015 RMK A01 T10081042  RH  077%=      5-min Rain = 0
KHA2 130653Z 26011KT M01/M04 A3015 RMK A01 T10081042  RH  078%=      5-min Rain = 0
KHA2 130654Z 26012KT M01/M04 A3015 RMK A01 T10091042  RH  078%=      5-min Rain = 0
KHA2 130655Z 26011KT M01/M04 A3015 RMK A01 T10091042  RH  078%=      5-min Rain = 0
KHA2 130656Z 26012KT M01/M04 A3015 RMK A01 T10081042  RH  078%=      5-min Rain = 0
KHA2 130657Z 26012KT M01/M04 A3015 RMK A01 T10081041  RH  078%=      5-min Rain = 0
KHA2 130658Z 26012KT M01/M04 A3015 RMK A01 T10071041  RH  078%=      5-min Rain = 0
KHA2 130659Z 26012KT M01/M04 A3015 RMK A01 T10071041  RH  078%=      5-min Rain = 0
KHA2 130700Z 27011KT M01/M04 A3015 RMK A01 T10071041  RH  077%=      5-min Rain = 0
KHA2 130701Z 27012KT M01/M04 A3015 RMK A01 T10071041  RH  077%=      5-min Rain = 0
KHA2 130702Z 27012KT M01/M04 A3015 RMK A01 T10071041  RH  077%=      5-min Rain = 0
KHA2 130703Z 27012KT M01/M04 A3015 RMK A01 T10071041  RH  077%=      5-min Rain = 0
KHA2 130704Z 27012KT M01/M04 A3015 RMK A01 T10071041  RH  077%=      5-min Rain = 0
KHA2 130705Z 27012KT M01/M04 A3015 RMK A01 T10061041  RH  077%=      5-min Rain = 0
KHA2 130706Z 27013KT M01/M04 A3015 RMK A01 T10061041  RH  077%=      5-min Rain = 0
KHA2 130707Z 27013KT M01/M04 A3015 RMK A01 T10051041  RH  077%=      5-min Rain = 0
KHA2 130708Z 26012KT M01/M04 A3015 RMK A01 T10051041  RH  077%=      5-min Rain = 0
KHA2 130709Z 26013KT M01/M04 A3015 RMK A01 T10051041  RH  077%=      5-min Rain = 0
KHA2 130710Z 26012KT M01/M04 A3015 RMK A01 T10051041  RH  077%=      5-min Rain = 0
KHA2 130711Z 26012KT M01/M04 A3015 RMK A01 T10061041  RH  077%=      5-min Rain = 0
KHA2 130712Z 26012KT M01/M04 A3015 RMK A01 T10061041  RH  077%=      5-min Rain = 0
KHA2 130713Z 26013KT M01/M04 A3015 RMK A01 T10071042  RH  077%=      5-min Rain = 0
KHA2 130714Z 26012KT M01/M04 A3015 RMK A01 T10071042  RH  078%=      5-min Rain = 0
KHA2 130715Z 26013KT M01/M04 A3015 RMK A01 T10071041  RH  078%=      5-min Rain = 0
KHA2 130716Z 26013KT M01/M04 A3015 RMK A01 T10071041  RH  078%=      5-min Rain = 0
KHA2 130717Z 26014KT M01/M04 A3015 RMK A01 T10071041  RH  078%=      5-min Rain = 0
KHA2 130718Z 26014KT M01/M04 A3015 RMK A01 T10061041  RH  077%=      5-min Rain = 0
KHA2 130719Z 26013KT M01/M04 A3015 RMK A01 T10061041  RH  077%=      5-min Rain = 0
KHA2 130720Z 27012KT M01/M04 A3015 RMK A01 T10061041  RH  077%=      5-min Rain = 0
KHA2 130721Z 27012KT M00/M04 A3015 RMK A01 T10041040  RH  077%=      5-min Rain = 0
KHA2 130722Z 27012KT M00/M04 A3015 RMK A01 T10031040  RH  076%=      5-min Rain = 0
KHA2 130723Z 27012KT M00/M04 A3015 RMK A01 T10021041  RH  075%=      5-min Rain = 0
KHA2 130724Z 26011KT M00/M04 A3015 RMK A01 T10021041  RH  075%=      5-min Rain = 0
KHA2 130725Z 27011KT M00/M04 A3015 RMK A01 T10011041  RH  075%=      5-min Rain = 0
KHA2 130726Z 27011KT M00/M04 A3015 RMK A01 T10011041  RH  075%=      5-min Rain = 0
KHA2 130727Z 27011KT 00/04 A3015 RMK A01 T00000-40  RH  074%=      5-min Rain = 0
KHA2 130728Z 26012KT 00/M04 A3015 RMK A01 T00011040  RH  073%=      5-min Rain = 0
KHA2 130729Z 26011KT 00/M04 A3015 RMK A01 T00021041  RH  073%=      5-min Rain = 0
KHA2 130730Z 26012KT 00/M04 A3015 RMK A01 T00021041  RH  073%=      5-min Rain = 0
KHA2 130731Z 27014KT 00/M04 A3015 RMK A01 T00041041  RH  072%=      5-min Rain = 0
KHA2 130732Z 27014KT 01/M04 A3015 RMK A01 T00061041  RH  070%=      5-min Rain = 0
KHA2 130733Z 27010KT 01/M04 A3015 RMK A01 T00081042  RH  069%=      5-min Rain = 0
KHA2 130734Z 27011KT 01/M04 A3015 RMK A01 T00061043  RH  070%=      5-min Rain = 0
KHA2 130735Z 27012KT 01/M04 A3015 RMK A01 T00051043  RH  070%=      5-min Rain = 0
KHA2 130736Z 26011KT 00/M04 A3015 RMK A01 T00041043  RH  071%=      5-min Rain = 0
KHA2 130737Z 27012KT 00/M04 A3015 RMK A01 T00031043  RH  071%=      5-min Rain = 0
KHA2 130738Z 27011KT 00/M04 A3015 RMK A01 T00041043  RH  071%=      5-min Rain = 0
KHA2 130739Z 27011KT 00/M04 A3015 RMK A01 T00021044  RH  071%=      5-min Rain = 0
KHA2 130740Z 27012KT 00/M04 A3015 RMK A01 T00011044  RH  072%=      5-min Rain = 0
KHA2 130741Z 27012KT 00/M04 A3015 RMK A01 T00011044  RH  072%=      5-min Rain = 0
KHA2 130742Z 27012KT 00/M04 A3015 RMK A01 T00011043  RH  072%=      5-min Rain = 0
KHA2 130743Z 26011KT 00/M04 A3015 RMK A01 T00011044  RH  072%=      5-min Rain = 0
KHA2 130744Z 26011KT 00/M04 A3015 RMK A01 T00011044  RH  072%=      5-min Rain = 0
KHA2 130745Z 26011KT 00/04 A3015 RMK A01 T00000-44  RH  072%=      5-min Rain = 0
KHA2 130746Z 27012KT M00/M05 A3015 RMK A01 T10011045  RH  072%=      5-min Rain = 0
KHA2 130747Z 27011KT 00/05 A3015 RMK A01 T00000-45  RH  072%=      5-min Rain = 0
KHA2 130748Z 26011KT 00/05 A3015 RMK A01 T00-00-45  RH  072%=      5-min Rain = 0
KHA2 130749Z 27011KT M00/M05 A3015 RMK A01 T10011045  RH  072%=      5-min Rain = 0
KHA2 130750Z 26012KT M00/M05 A3015 RMK A01 T10011045  RH  072%=      5-min Rain = 0
KHA2 130751Z 26012KT M00/M05 A3015 RMK A01 T10011045  RH  073%=      5-min Rain = 0
KHA2 130752Z 26012KT M00/M05 A3015 RMK A01 T10021045  RH  073%=      5-min Rain = 0
KHA2 130753Z 26011KT M00/M05 A3015 RMK A01 T10031045  RH  073%=      5-min Rain = 0
KHA2 130754Z 26010KT M00/M05 A3015 RMK A01 T10041045  RH  074%=      5-min Rain = 0
KHA2 130755Z 26012KT M01/M05 A3015 RMK A01 T10061045  RH  075%=      5-min Rain = 0
KHA2 130756Z 26011KT M01/M05 A3015 RMK A01 T10061045  RH  075%=      5-min Rain = 0
KHA2 130757Z 26011KT M01/M05 A3015 RMK A01 T10061045  RH  075%=      5-min Rain = 0
KHA2 130758Z 27011KT M01/M05 A3015 RMK A01 T10061045  RH  075%=      5-min Rain = 0
KHA2 130759Z 26012KT M01/M05 A3014 RMK A01 T10061045  RH  075%=      5-min Rain = 0
KHA2 130800Z 27012KT M01/M05 A3014 RMK A01 T10061045  RH  075%=      5-min Rain = 0
KHA2 130801Z 26011KT M01/M04 A3014 RMK A01 T10051044  RH  075%=      5-min Rain = 0
KHA2 130802Z 27011KT M01/M04 A3014 RMK A01 T10051044  RH  075%=      5-min Rain = 0
KHA2 130803Z 26013KT M00/M04 A3014 RMK A01 T10041044  RH  075%=      5-min Rain = 0
KHA2 130804Z 27012KT M00/M04 A3014 RMK A01 T10031044  RH  074%=      5-min Rain = 0
KHA2 130805Z 27013KT M00/M04 A3014 RMK A01 T10031044  RH  074%=      5-min Rain = 0
KHA2 130806Z 27013KT M00/M04 A3014 RMK A01 T10031043  RH  074%=      5-min Rain = 0
KHA2 130807Z 26013KT M00/M04 A3014 RMK A01 T10021043  RH  074%=      5-min Rain = 0
KHA2 130808Z 26012KT M00/M04 A3014 RMK A01 T10011043  RH  074%=      5-min Rain = 0
KHA2 130809Z 27013KT M00/M04 A3014 RMK A01 T10011043  RH  074%=      5-min Rain = 0
KHA2 130810Z 27013KT M00/M04 A3014 RMK A01 T10011042  RH  074%=      5-min Rain = 0
KHA2 130811Z 27014KT M00/M04 A3014 RMK A01 T10021042  RH  074%=      5-min Rain = 0
KHA2 130812Z 27014KT M00/M04 A3014 RMK A01 T10011043  RH  074%=      5-min Rain = 0
KHA2 130813Z 27014KT M00/M04 A3014 RMK A01 T10011043  RH  074%=      5-min Rain = 0
KHA2 130814Z 27014KT M00/M04 A3014 RMK A01 T10011043  RH  074%=      5-min Rain = 0
KHA2 130815Z 27015KT M00/M04 A3014 RMK A01 T10011043  RH  074%=      5-min Rain = 0
KHA2 130816Z 27015KT 00/04 A3014 RMK A01 T00-00-42  RH  073%=      5-min Rain = 0
KHA2 130817Z 27015KT 00/M04 A3014 RMK A01 T00011042  RH  073%=      5-min Rain = 0
KHA2 130818Z 27014G20KT 00/04 A3014 RMK A01 T00-00-42  RH  073%=      5-min Rain = 0
KHA2 130819Z 27014KT M00/M04 A3014 RMK A01 T10011043  RH  074%=      5-min Rain = 0
KHA2 130820Z 27015KT M00/M04 A3014 RMK A01 T10021043  RH  074%=      5-min Rain = 0
KHA2 130821Z 27016KT M00/M04 A3014 RMK A01 T10011042  RH  074%=      5-min Rain = 0
KHA2 130822Z 27015KT M00/M04 A3014 RMK A01 T10011043  RH  074%=      5-min Rain = 0
KHA2 130823Z 27015KT M00/M04 A3013 RMK A01 T10011043  RH  074%=      5-min Rain = 0
KHA2 130824Z 27014KT M00/M04 A3013 RMK A01 T10011043  RH  073%=      5-min Rain = 0
KHA2 130825Z 27015KT M00/M04 A3013 RMK A01 T10021043  RH  074%=      5-min Rain = 0
KHA2 130826Z 27014KT M00/M04 A3013 RMK A01 T10021043  RH  074%=      5-min Rain = 0
KHA2 130827Z 27015KT M00/M04 A3013 RMK A01 T10021043  RH  074%=      5-min Rain = 0
KHA2 130828Z 27014KT M00/M04 A3013 RMK A01 T10021043  RH  074%=      5-min Rain = 0
KHA2 130829Z 26014KT M00/M04 A3013 RMK A01 T10031043  RH  074%=      5-min Rain = 0
KHA2 130830Z 26015KT M00/M04 A3013 RMK A01 T10031044  RH  074%=      5-min Rain = 0
KHA2 130831Z 27016KT M00/M04 A3013 RMK A01 T10031044  RH  074%=      5-min Rain = 0
KHA2 130832Z 27014KT M00/M04 A3013 RMK A01 T10031043  RH  074%=      5-min Rain = 0
KHA2 130833Z 26017KT M00/M04 A3013 RMK A01 T10031043  RH  074%=      5-min Rain = 0
KHA2 130834Z 27015KT M00/M04 A3013 RMK A01 T10021042  RH  074%=      5-min Rain = 0
KHA2 130835Z 27014KT 00/04 A3013 RMK A01 T00000-42  RH  073%=      5-min Rain = 0
KHA2 130836Z 27015KT 00/04 A3013 RMK A01 T00000-43  RH  073%=      5-min Rain = 0
KHA2 130837Z 26016KT 00/M04 A3013 RMK A01 T00011043  RH  073%=      5-min Rain = 0
KHA2 130838Z 27016KT 00/M04 A3013 RMK A01 T00021042  RH  072%=      5-min Rain = 0
KHA2 130839Z 27016KT 00/M04 A3013 RMK A01 T00031042  RH  072%=      5-min Rain = 0
KHA2 130840Z 27016KT 00/M04 A3013 RMK A01 T00031042  RH  072%=      5-min Rain = 0
KHA2 130841Z 27016KT 00/M04 A3013 RMK A01 T00041042  RH  071%=      5-min Rain = 0
KHA2 130842Z 27017KT 01/M04 A3013 RMK A01 T00051042  RH  071%=      5-min Rain = 0
KHA2 130843Z 27019KT 01/M04 A3012 RMK A01 T00071042  RH  070%=      5-min Rain = 0
KHA2 130844Z 27018KT 01/M04 A3012 RMK A01 T00081042  RH  069%=      5-min Rain = 0
KHA2 130845Z 27018KT 01/M04 A3012 RMK A01 T00091042  RH  069%=      5-min Rain = 0
KHA2 130846Z 27018KT 01/M04 A3012 RMK A01 T00081043  RH  069%=      5-min Rain = 0
KHA2 130847Z 27017KT 01/M04 A3012 RMK A01 T00071043  RH  069%=      5-min Rain = 0
KHA2 130848Z 27016KT 01/M04 A3012 RMK A01 T00061044  RH  069%=      5-min Rain = 0
KHA2 130849Z 27017KT 01/M04 A3012 RMK A01 T00051043  RH  070%=      5-min Rain = 0
KHA2 130850Z 27015KT 00/M04 A3012 RMK A01 T00041043  RH  070%=      5-min Rain = 0
KHA2 130851Z 27018KT 00/M04 A3012 RMK A01 T00031043  RH  071%=      5-min Rain = 0
KHA2 130852Z 27015KT 00/M04 A3012 RMK A01 T00031044  RH  071%=      5-min Rain = 0
KHA2 130853Z 27015KT 00/M04 A3012 RMK A01 T00021044  RH  071%=      5-min Rain = 0
KHA2 130854Z 27015KT 00/04 A3012 RMK A01 T00000-44  RH  072%=      5-min Rain = 0
KHA2 130855Z 26014KT M00/M04 A3012 RMK A01 T10011044  RH  073%=      5-min Rain = 0
KHA2 130856Z 27015KT M00/M04 A3012 RMK A01 T10021044  RH  073%=      5-min Rain = 0
KHA2 130857Z 27015KT M00/M04 A3012 RMK A01 T10021044  RH  073%=      5-min Rain = 0
KHA2 130858Z 26016KT M00/M04 A3012 RMK A01 T10021044  RH  073%=      5-min Rain = 0
KHA2 130859Z 27013KT M00/M04 A3012 RMK A01 T10031044  RH  073%=      5-min Rain = 0
KHA2 130900Z 27014KT M00/M05 A3012 RMK A01 T10041045  RH  074%=      5-min Rain = 0
KHA2 130901Z 26014KT M01/M05 A3012 RMK A01 T10061045  RH  075%=      5-min Rain = 0
KHA2 130902Z 27014KT M01/M05 A3012 RMK A01 T10061045  RH  075%=      5-min Rain = 0
KHA2 130903Z 27013KT M01/M05 A3012 RMK A01 T10071045  RH  075%=      5-min Rain = 0
KHA2 130904Z 26013KT M01/M05 A3012 RMK A01 T10081045  RH  076%=      5-min Rain = 0
KHA2 130905Z 26013KT M01/M05 A3011 RMK A01 T10081045  RH  076%=      5-min Rain = 0
KHA2 130906Z 27013KT M01/M05 A3011 RMK A01 T10081045  RH  076%=      5-min Rain = 0
KHA2 130907Z 27011KT M01/M05 A3011 RMK A01 T10081045  RH  076%=      5-min Rain = 0
KHA2 130908Z 26011KT M01/M05 A3011 RMK A01 T10091046  RH  076%=      5-min Rain = 0
KHA2 130909Z 27012KT M01/M05 A3011 RMK A01 T10101046  RH  077%=      5-min Rain = 0
KHA2 130910Z 27013KT M01/M05 A3011 RMK A01 T10101046  RH  077%=      5-min Rain = 0
KHA2 130911Z 27013KT M01/M05 A3011 RMK A01 T10101046  RH  077%=      5-min Rain = 0
KHA2 130912Z 27011KT M01/M05 A3011 RMK A01 T10101046  RH  077%=      5-min Rain = 0
KHA2 130913Z 27012KT M01/M05 A3011 RMK A01 T10111046  RH  077%=      5-min Rain = 0
KHA2 130914Z 27011KT M01/M05 A3011 RMK A01 T10121046  RH  077%=      5-min Rain = 0
KHA2 130915Z 27011KT M01/M05 A3011 RMK A01 T10121047  RH  077%=      5-min Rain = 0
KHA2 130916Z 27012KT M01/M05 A3011 RMK A01 T10121047  RH  078%=      5-min Rain = 0
KHA2 130917Z 26011KT M01/M05 A3011 RMK A01 T10131047  RH  078%=      5-min Rain = 0
KHA2 130918Z 27012KT M01/M05 A3011 RMK A01 T10141048  RH  078%=      5-min Rain = 0
KHA2 130919Z 26012KT M01/M05 A3011 RMK A01 T10141047  RH  078%=      5-min Rain = 0
KHA2 130920Z 27012KT M01/M05 A3011 RMK A01 T10141047  RH  078%=      5-min Rain = 0
KHA2 130921Z 26012KT M01/M05 A3011 RMK A01 T10141047  RH  078%=      5-min Rain = 0
KHA2 130922Z 26012KT M02/M05 A3011 RMK A01 T10151048  RH  078%=      5-min Rain = 0
KHA2 130923Z 26012KT M02/M05 A3011 RMK A01 T10151048  RH  078%=      5-min Rain = 0
KHA2 130924Z 26013KT M02/M05 A3011 RMK A01 T10151048  RH  079%=      5-min Rain = 0
KHA2 130925Z 26012KT M02/M05 A3011 RMK A01 T10161048  RH  079%=      5-min Rain = 0
KHA2 130926Z 27012KT M02/M05 A301 RMK A01 T10161048  RH  079%=      5-min Rain = 0
KHA2 130927Z 26012KT M02/M05 A301 RMK A01 T10171049  RH  079%=      5-min Rain = 0
KHA2 130928Z 26012KT M02/M05 A301 RMK A01 T10181049  RH  079%=      5-min Rain = 0
KHA2 130929Z 26012KT M02/M05 A301 RMK A01 T10181049  RH  079%=      5-min Rain = 0
KHA2 130930Z 26012KT M02/M05 A301 RMK A01 T10181049  RH  080%=      5-min Rain = 0
KHA2 130931Z 26013KT M02/M05 A301 RMK A01 T10191049  RH  080%=      5-min Rain = 0
KHA2 130932Z 26012KT M02/M05 A301 RMK A01 T10181049  RH  080%=      5-min Rain = 0
KHA2 130933Z 26012KT M02/M05 A301 RMK A01 T10181049  RH  079%=      5-min Rain = 0
KHA2 130934Z 26013KT M02/M05 A301 RMK A01 T10181049  RH  079%=      5-min Rain = 0
KHA2 130935Z 26012KT M02/M05 A301 RMK A01 T10181049  RH  079%=      5-min Rain = 0
KHA2 130936Z 26012KT M02/M05 A301 RMK A01 T10181050  RH  079%=      5-min Rain = 0
KHA2 130937Z 26012KT M02/M05 A301 RMK A01 T10181049  RH  079%=      5-min Rain = 0
KHA2 130938Z 26012KT M02/M05 A3009 RMK A01 T10191049  RH  079%=      5-min Rain = 0
KHA2 130939Z 26013KT M02/M05 A3009 RMK A01 T10191049  RH  079%=      5-min Rain = 0
KHA2 130940Z 26013KT M02/M05 A3009 RMK A01 T10191050  RH  079%=      5-min Rain = 0
KHA2 130941Z 26012KT M02/M05 A3009 RMK A01 T10191050  RH  079%=      5-min Rain = 0
KHA2 130942Z 26013KT M02/M05 A3009 RMK A01 T10191050  RH  080%=      5-min Rain = 0
KHA2 130943Z 26012KT M02/M05 A3009 RMK A01 T10191050  RH  080%=      5-min Rain = 0
KHA2 130944Z 26012KT M02/M05 A3009 RMK A01 T10191050  RH  079%=      5-min Rain = 0
KHA2 130945Z 26013KT M02/M05 A3009 RMK A01 T10191050  RH  079%=      5-min Rain = 0
KHA2 130946Z 25012KT M02/M05 A3009 RMK A01 T10191050  RH  079%=      5-min Rain = 0
KHA2 130947Z 26012KT M02/M05 A3009 RMK A01 T10201051  RH  079%=      5-min Rain = 0
KHA2 130948Z 26012KT M02/M05 A3009 RMK A01 T10211051  RH  080%=      5-min Rain = 0
KHA2 130949Z 25012KT M02/M05 A3009 RMK A01 T10211051  RH  080%=      5-min Rain = 0
KHA2 130950Z 25012KT M02/M05 A3009 RMK A01 T10211051  RH  080%=      5-min Rain = 0
KHA2 130951Z 26012KT M02/M05 A3009 RMK A01 T10211051  RH  080%=      5-min Rain = 0
KHA2 130952Z 26012KT M02/M05 A3009 RMK A01 T10201051  RH  080%=      5-min Rain = 0
KHA2 130953Z 25011KT M02/M05 A3009 RMK A01 T10211051  RH  080%=      5-min Rain = 0
KHA2 130954Z 25012KT M02/M05 A3009 RMK A01 T10211051  RH  080%=      5-min Rain = 0
KHA2 130955Z 25012KT M02/M05 A3008 RMK A01 T10221052  RH  080%=      5-min Rain = 0
KHA2 130956Z 25012KT M02/M05 A3008 RMK A01 T10221051  RH  080%=      5-min Rain = 0
KHA2 130957Z 25013KT M02/M05 A3008 RMK A01 T10221051  RH  080%=      5-min Rain = 0
KHA2 130958Z 25011KT M02/M05 A3008 RMK A01 T10211051  RH  080%=      5-min Rain = 0
KHA2 130959Z 25011KT M02/M05 A3008 RMK A01 T10211051  RH  080%=      5-min Rain = 0
KHA2 131000Z 25011KT M02/M05 A3008 RMK A01 T10221052  RH  080%=      5-min Rain = 0
KHA2 131001Z 25010KT M02/M05 A3008 RMK A01 T10231052  RH  080%=      5-min Rain = 0
KHA2 131002Z 25010KT M02/M05 A3008 RMK A01 T10241053  RH  081%=      5-min Rain = 0
KHA2 131003Z 25011KT M02/M05 A3008 RMK A01 T10241053  RH  081%=      5-min Rain = 0
KHA2 131004Z 25010KT M03/M05 A3008 RMK A01 T10251053  RH  081%=      5-min Rain = 0
KHA2 131005Z 25011KT M03/M05 A3008 RMK A01 T10251053  RH  081%=      5-min Rain = 0
KHA2 131006Z 25010KT M03/M05 A3008 RMK A01 T10251053  RH  081%=      5-min Rain = 0
KHA2 131007Z 25011KT M03/M05 A3008 RMK A01 T10251053  RH  081%=      5-min Rain = 0
KHA2 131008Z 25010KT M03/M05 A3008 RMK A01 T10251054  RH  081%=      5-min Rain = 0
KHA2 131009Z 25010KT M03/M05 A3008 RMK A01 T10271054  RH  081%=      5-min Rain = 0
KHA2 131010Z 25010KT M03/M05 A3008 RMK A01 T10271054  RH  081%=      5-min Rain = 0
KHA2 131011Z 25011KT M03/M05 A3008 RMK A01 T10271054  RH  082%=      5-min Rain = 0
KHA2 131012Z 25010KT M03/M05 A3008 RMK A01 T10271054  RH  082%=      5-min Rain = 0
KHA2 131013Z 25010KT M03/M06 A3008 RMK A01 T10281055  RH  082%=      5-min Rain = 0
KHA2 131014Z 25010KT M03/M06 A3008 RMK A01 T10281055  RH  082%=      5-min Rain = 0
KHA2 131015Z 25011KT M03/M06 A3008 RMK A01 T10291055  RH  082%=      5-min Rain = 0
KHA2 131016Z 25010KT M03/M06 A3008 RMK A01 T10291055  RH  082%=      5-min Rain = 0
KHA2 131017Z 24010KT M03/M06 A3008 RMK A01 T10301056  RH  082%=      5-min Rain = 0
KHA2 131018Z 24010KT M03/M06 A3007 RMK A01 T10301056  RH  082%=      5-min Rain = 0
KHA2 131019Z 24010KT M03/M06 A3007 RMK A01 T10311057  RH  083%=      5-min Rain = 0
KHA2 131020Z 24011KT M03/M06 A3007 RMK A01 T10321057  RH  083%=      5-min Rain = 0
KHA2 131021Z 25010KT M03/M06 A3007 RMK A01 T10321057  RH  083%=      5-min Rain = 0
KHA2 131022Z 25011KT M03/M06 A3007 RMK A01 T10331057  RH  083%=      5-min Rain = 0
KHA2 131023Z 25011KT M03/M06 A3007 RMK A01 T10341058  RH  083%=      5-min Rain = 0
KHA2 131024Z 25010KT M03/M06 A3007 RMK A01 T10331057  RH  084%=      5-min Rain = 0
KHA2 131025Z 25011KT M03/M06 A3007 RMK A01 T10331057  RH  084%=      5-min Rain = 0
KHA2 131026Z 25011KT M03/M06 A3007 RMK A01 T10331057  RH  084%=      5-min Rain = 0
KHA2 131027Z 26012KT M03/M06 A3007 RMK A01 T10321057  RH  083%=      5-min Rain = 0
KHA2 131028Z 26012KT M03/M06 A3007 RMK A01 T10321057  RH  083%=      5-min Rain = 0
KHA2 131029Z 26012KT M03/M06 A3007 RMK A01 T10321057  RH  083%=      5-min Rain = 0
KHA2 131030Z 26012KT M03/M06 A3007 RMK A01 T10321057  RH  083%=      5-min Rain = 0
KHA2 131031Z 26013KT M03/M06 A3007 RMK A01 T10321057  RH  083%=      5-min Rain = 0
KHA2 131032Z 27012KT M03/M06 A3007 RMK A01 T10311056  RH  083%=      5-min Rain = 0
KHA2 131033Z 26012KT M03/M06 A3007 RMK A01 T10311056  RH  082%=      5-min Rain = 0
KHA2 131034Z 27013KT M03/M06 A3007 RMK A01 T10311057  RH  082%=      5-min Rain = 0
KHA2 131035Z 27014KT M03/M06 A3007 RMK A01 T10311056  RH  082%=      5-min Rain = 0
KHA2 131036Z 27013KT M03/M06 A3007 RMK A01 T10291056  RH  082%=      5-min Rain = 0
KHA2 131037Z 27013KT M03/M06 A3007 RMK A01 T10281055  RH  082%=      5-min Rain = 0
KHA2 131038Z 27013KT M03/M06 A3007 RMK A01 T10271055  RH  081%=      5-min Rain = 0
KHA2 131039Z 27014KT M03/M05 A3007 RMK A01 T10251054  RH  081%=      5-min Rain = 0
KHA2 131040Z 27013KT M02/M05 A3007 RMK A01 T10231054  RH  080%=      5-min Rain = 0
KHA2 131041Z 27014G20KT M02/M05 A3007 RMK A01 T10221054  RH  079%=      5-min Rain = 0
KHA2 131042Z 27013KT M02/M05 A3007 RMK A01 T10221054  RH  079%=      5-min Rain = 0
KHA2 131043Z 27013KT M02/M06 A3007 RMK A01 T10221055  RH  078%=      5-min Rain = 0
KHA2 131044Z 27014KT M02/M06 A3007 RMK A01 T10221055  RH  078%=      5-min Rain = 0
KHA2 131045Z 27013KT M02/M06 A3007 RMK A01 T10221055  RH  078%=      5-min Rain = 0
KHA2 131046Z 27012KT M02/M06 A3007 RMK A01 T10221055  RH  078%=      5-min Rain = 0
KHA2 131047Z 27014KT M02/M06 A3007 RMK A01 T10221055  RH  078%=      5-min Rain = 0
KHA2 131048Z 27014KT M02/M06 A3007 RMK A01 T10211055  RH  078%=      5-min Rain = 0
KHA2 131049Z 27015KT M02/M05 A3007 RMK A01 T10201054  RH  077%=      5-min Rain = 0
KHA2 131050Z 27016KT M02/M05 A3007 RMK A01 T10191054  RH  077%=      5-min Rain = 0
KHA2 131051Z 27014KT M02/M06 A3007 RMK A01 T10181055  RH  076%=      5-min Rain = 0
KHA2 131052Z 27014KT M02/M06 A3007 RMK A01 T10181055  RH  076%=      5-min Rain = 0
KHA2 131053Z 27014KT M02/M06 A3007 RMK A01 T10191056  RH  076%=      5-min Rain = 0
KHA2 131054Z 27014KT M02/M06 A3007 RMK A01 T10201056  RH  076%=      5-min Rain = 0
KHA2 131055Z 27013KT M02/M06 A3006 RMK A01 T10201056  RH  077%=      5-min Rain = 0
KHA2 131056Z 27012KT M02/M06 A3006 RMK A01 T10201056  RH  077%=      5-min Rain = 0
KHA2 131057Z 27013KT M02/M06 A3006 RMK A01 T10211056  RH  077%=      5-min Rain = 0
KHA2 131058Z 26013KT M02/M06 A3006 RMK A01 T10211056  RH  077%=      5-min Rain = 0
KHA2 131059Z 26012G17KT M02/M06 A3006 RMK A01 T10211056  RH  077%=      5-min Rain = 0
KHA2 131100Z 26013KT M02/M06 A3006 RMK A01 T10221056  RH  077%=      5-min Rain = 0
KHA2 131101Z 26013KT M02/M06 A3006 RMK A01 T10221056  RH  077%=      5-min Rain = 0
KHA2 131102Z 26013KT M02/M06 A3006 RMK A01 T10221056  RH  077%=      5-min Rain = 0
KHA2 131103Z 26012KT M02/M06 A3006 RMK A01 T10211056  RH  077%=      5-min Rain = 0
KHA2 131104Z 26012KT M02/M06 A3006 RMK A01 T10221057  RH  077%=      5-min Rain = 0
KHA2 131105Z 27011KT M02/M06 A3006 RMK A01 T10221057  RH  077%=      5-min Rain = 0
KHA2 131106Z 26011KT M02/M06 A3006 RMK A01 T10221057  RH  077%=      5-min Rain = 0
KHA2 131107Z 27011KT M02/M06 A3006 RMK A01 T10221057  RH  077%=      5-min Rain = 0
KHA2 131108Z 26011KT M02/M06 A3006 RMK A01 T10231057  RH  077%=      5-min Rain = 0
KHA2 131109Z 27011KT M02/M06 A3006 RMK A01 T10231057  RH  078%=      5-min Rain = 0
KHA2 131110Z 26011KT M02/M06 A3006 RMK A01 T10231057  RH  077%=      5-min Rain = 0
KHA2 131111Z 26010KT M02/M06 A3006 RMK A01 T10231058  RH  077%=      5-min Rain = 0
KHA2 131112Z 26011KT M02/M06 A3006 RMK A01 T10231058  RH  077%=      5-min Rain = 0
KHA2 131113Z 26011KT M02/M06 A3006 RMK A01 T10241058  RH  077%=      5-min Rain = 0
KHA2 131114Z 26011KT M02/M06 A3006 RMK A01 T10241058  RH  078%=      5-min Rain = 0
KHA2 131115Z 27012KT M02/M06 A3006 RMK A01 T10241058  RH  078%=      5-min Rain = 0
KHA2 131116Z 26012KT M02/M06 A3006 RMK A01 T10241058  RH  078%=      5-min Rain = 0
KHA2 131117Z 26012KT M02/M06 A3006 RMK A01 T10241057  RH  078%=      5-min Rain = 0
KHA2 131118Z 26011KT M03/M06 A3006 RMK A01 T10251058  RH  078%=      5-min Rain = 0
KHA2 131119Z 26012KT M03/M06 A3005 RMK A01 T10251058  RH  078%=      5-min Rain = 0
KHA2 131120Z 26012KT M03/M06 A3005 RMK A01 T10251058  RH  078%=      5-min Rain = 0
KHA2 131121Z 26012KT M03/M06 A3005 RMK A01 T10261058  RH  078%=      5-min Rain = 0
KHA2 131122Z 26013KT M03/M06 A3005 RMK A01 T10261059  RH  078%=      5-min Rain = 0
KHA2 131123Z 26013KT M03/M06 A3005 RMK A01 T10261059  RH  078%=      5-min Rain = 0
KHA2 131124Z 26012KT M03/M06 A3005 RMK A01 T10261059  RH  078%=      5-min Rain = 0
KHA2 131125Z 26014KT M03/M06 A3005 RMK A01 T10271059  RH  078%=      5-min Rain = 0
KHA2 131126Z 26014KT M03/M06 A3005 RMK A01 T10261059  RH  078%=      5-min Rain = 0
KHA2 131127Z 26014KT M03/M06 A3005 RMK A01 T10261059  RH  078%=      5-min Rain = 0
KHA2 131128Z 26013KT M03/M06 A3005 RMK A01 T10261059  RH  078%=      5-min Rain = 0
KHA2 131129Z 26014KT M03/M06 A3004 RMK A01 T10271059  RH  078%=      5-min Rain = 0
KHA2 131130Z 26014KT M03/M06 A3004 RMK A01 T10261059  RH  078%=      5-min Rain = 0
KHA2 131131Z 26014KT M03/M06 A3004 RMK A01 T10261059  RH  078%=      5-min Rain = 0
KHA2 131132Z 26014KT M03/M06 A3004 RMK A01 T10271059  RH  078%=      5-min Rain = 0
KHA2 131133Z 26014KT M03/M06 A3004 RMK A01 T10271059  RH  078%=      5-min Rain = 0
KHA2 131134Z 26014KT M03/M06 A3004 RMK A01 T10271060  RH  078%=      5-min Rain = 0
KHA2 131135Z 26014KT M03/M06 A3004 RMK A01 T10271060  RH  078%=      5-min Rain = 0
KHA2 131136Z 27014KT M03/M06 A3004 RMK A01 T10271060  RH  078%=      5-min Rain = 0
KHA2 131137Z 27015KT M03/M06 A3004 RMK A01 T10271061  RH  078%=      5-min Rain = 0
KHA2 131138Z 27015KT M03/M06 A3004 RMK A01 T10271061  RH  078%=      5-min Rain = 0
KHA2 131139Z 26013KT M03/M06 A3004 RMK A01 T10271061  RH  078%=      5-min Rain = 0
KHA2 131140Z 27014KT M03/M06 A3004 RMK A01 T10271061  RH  078%=      5-min Rain = 0
KHA2 131141Z 27014KT M03/M06 A3004 RMK A01 T10271061  RH  077%=      5-min Rain = 0
KHA2 131142Z 27014KT M03/M06 A3004 RMK A01 T10271062  RH  077%=      5-min Rain = 0
KHA2 131143Z 27015KT M03/M06 A3004 RMK A01 T10271061  RH  077%=      5-min Rain = 0
KHA2 131144Z 27014KT M03/M06 A3004 RMK A01 T10261061  RH  077%=      5-min Rain = 0
KHA2 131145Z 27016KT M03/M06 A3004 RMK A01 T10261061  RH  077%=      5-min Rain = 0
KHA2 131146Z 27014KT M03/M06 A3004 RMK A01 T10261061  RH  076%=      5-min Rain = 0
KHA2 131147Z 26015KT M03/M06 A3004 RMK A01 T10251061  RH  076%=      5-min Rain = 0
KHA2 131148Z 26014KT M03/M06 A3004 RMK A01 T10251061  RH  076%=      5-min Rain = 0
KHA2 131149Z 26014KT M03/M06 A3004 RMK A01 T10261062  RH  076%=      5-min Rain = 0
KHA2 131150Z 27014KT M03/M06 A3004 RMK A01 T10261062  RH  077%=      5-min Rain = 0
KHA2 131151Z 26015KT M03/M06 A3004 RMK A01 T10261062  RH  077%=      5-min Rain = 0
KHA2 131152Z 27016KT M03/M06 A3004 RMK A01 T10261062  RH  077%=      5-min Rain = 0
KHA2 131153Z 26017KT M03/M06 A3004 RMK A01 T10261061  RH  076%=      5-min Rain = 0
KHA2 131154Z 26015KT M03/M06 A3004 RMK A01 T10251062  RH  076%=      5-min Rain = 0
KHA2 131155Z 26015KT M03/M06 A3004 RMK A01 T10251061  RH  076%=      5-min Rain = 0
KHA2 131156Z 27017KT M03/M06 A3004 RMK A01 T10251062  RH  076%=      5-min Rain = 0
KHA2 131157Z 27016KT M03/M06 A3004 RMK A01 T10251061  RH  076%=      5-min Rain = 0
KHA2 131158Z 26018KT M03/M06 A3004 RMK A01 T10251061  RH  076%=      5-min Rain = 0
KHA2 131159Z 26016KT M02/M06 A3004 RMK A01 T10241062  RH  075%=      5-min Rain = 0
KHA2 131200Z 26014KT M03/M06 A3004 RMK A01 T10251063  RH  075%=      5-min Rain = 0
KHA2 131201Z 26015KT M03/M06 A3004 RMK A01 T10271063  RH  076%=      5-min Rain = 0
KHA2 131202Z 26016KT M03/M06 A3004 RMK A01 T10281063  RH  077%=      5-min Rain = 0
KHA2 131203Z 26015KT M03/M06 A3003 RMK A01 T10281063  RH  077%=      5-min Rain = 0
KHA2 131204Z 26016KT M03/M06 A3003 RMK A01 T10281063  RH  077%=      5-min Rain = 0
KHA2 131205Z 26016KT M03/M06 A3003 RMK A01 T10291063  RH  077%=      5-min Rain = 0
KHA2 131206Z 26016KT M03/M06 A3003 RMK A01 T10291063  RH  077%=      5-min Rain = 0
KHA2 131207Z 26016KT M03/M06 A3003 RMK A01 T10291063  RH  078%=      5-min Rain = 0
KHA2 131208Z 26016KT M03/M06 A3003 RMK A01 T10301063  RH  078%=      5-min Rain = 0
KHA2 131209Z 26016KT M03/M06 A3003 RMK A01 T10301064  RH  078%=      5-min Rain = 0
KHA2 131210Z 26014KT M03/M06 A3003 RMK A01 T10301063  RH  078%=      5-min Rain = 0
KHA2 131211Z 26015KT M03/M06 A3003 RMK A01 T10311064  RH  078%=      5-min Rain = 0
KHA2 131212Z 25014KT M03/M06 A3003 RMK A01 T10321064  RH  078%=      5-min Rain = 0
KHA2 131213Z 25014KT M03/M06 A3003 RMK A01 T10321064  RH  078%=      5-min Rain = 0
KHA2 131214Z 25013KT M03/M07 A3003 RMK A01 T10331065  RH  078%=      5-min Rain = 0
KHA2 131215Z 26014KT M03/M07 A3003 RMK A01 T10331065  RH  079%=      5-min Rain = 0
KHA2 131216Z 26013KT M03/M07 A3003 RMK A01 T10331065  RH  079%=      5-min Rain = 0
KHA2 131217Z 26014KT M03/M07 A3003 RMK A01 T10331065  RH  079%=      5-min Rain = 0
KHA2 131218Z 26013KT M03/M07 A3003 RMK A01 T10331065  RH  079%=      5-min Rain = 0
KHA2 131219Z 26012KT M03/M07 A3003 RMK A01 T10331065  RH  078%=      5-min Rain = 0
KHA2 131220Z 26012KT M03/M07 A3003 RMK A01 T10321065  RH  078%=      5-min Rain = 0
KHA2 131221Z 26012KT M03/M07 A3003 RMK A01 T10331065  RH  078%=      5-min Rain = 0
KHA2 131222Z 26012KT M03/M07 A3003 RMK A01 T10341065  RH  079%=      5-min Rain = 0
KHA2 131223Z 26014KT M03/M07 A3004 RMK A01 T10341065  RH  079%=      5-min Rain = 0
KHA2 131224Z 26013KT M03/M07 A3004 RMK A01 T10331065  RH  079%=      5-min Rain = 0
KHA2 131225Z 26013KT M03/M07 A3004 RMK A01 T10331065  RH  078%=      5-min Rain = 0
KHA2 131226Z 26013KT M03/M07 A3004 RMK A01 T10331065  RH  078%=      5-min Rain = 0
KHA2 131227Z 26013KT M03/M07 A3004 RMK A01 T10331066  RH  078%=      5-min Rain = 0
KHA2 131228Z 26012KT M03/M07 A3004 RMK A01 T10331066  RH  078%=      5-min Rain = 0
KHA2 131229Z 27013KT M03/M07 A3004 RMK A01 T10331066  RH  078%=      5-min Rain = 0
KHA2 131230Z 26012KT M03/M07 A3004 RMK A01 T10331066  RH  078%=      5-min Rain = 0
KHA2 131231Z 26012KT M03/M07 A3004 RMK A01 T10331066  RH  078%=      5-min Rain = 0
KHA2 131232Z 26012KT M03/M07 A3004 RMK A01 T10331066  RH  078%=      5-min Rain = 0
KHA2 131233Z 27012KT M03/M07 A3004 RMK A01 T10331066  RH  078%=      5-min Rain = 0
KHA2 131234Z 27012KT M03/M07 A3004 RMK A01 T10341067  RH  078%=      5-min Rain = 0
KHA2 131235Z 27012KT M04/M07 A3004 RMK A01 T10351067  RH  079%=      5-min Rain = 0
KHA2 131236Z 27012KT M04/M07 A3004 RMK A01 T10351066  RH  079%=      5-min Rain = 0
KHA2 131237Z 27012KT M04/M07 A3005 RMK A01 T10351066  RH  079%=      5-min Rain = 0
KHA2 131238Z 28012KT M04/M07 A3005 RMK A01 T10351066  RH  079%=      5-min Rain = 0
KHA2 131239Z 28011KT M03/M07 A3005 RMK A01 T10341066  RH  079%=      5-min Rain = 0
KHA2 131240Z 28010KT M03/M07 A3005 RMK A01 T10341066  RH  078%=      5-min Rain = 0
KHA2 131241Z 28010KT M03/M07 A3006 RMK A01 T10341066  RH  079%=      5-min Rain = 0
KHA2 131242Z 29011KT M04/M07 A3006 RMK A01 T10351066  RH  079%=      5-min Rain = 0
KHA2 131243Z 30009KT M03/M07 A3006 RMK A01 T10341066  RH  079%=      5-min Rain = 0
KHA2 131244Z 29012KT M04/M07 A3006 RMK A01 T10351067  RH  078%=      5-min Rain = 0
KHA2 131245Z 29011KT M03/M07 A3006 RMK A01 T10341067  RH  078%=      5-min Rain = 0
KHA2 131246Z 29011KT M04/M07 A3006 RMK A01 T10361067  RH  079%=      5-min Rain = 0
KHA2 131247Z 30010KT M04/M07 A3006 RMK A01 T10371068  RH  079%=      5-min Rain = 0
KHA2 131248Z 31010KT M04/M07 A3006 RMK A01 T10381068  RH  080%=      5-min Rain = 0
KHA2 131249Z 31010KT M04/M07 A3006 RMK A01 T10381067  RH  080%=      5-min Rain = 0
KHA2 131250Z 31009KT M04/M07 A3006 RMK A01 T10401068  RH  081%=      5-min Rain = 0
KHA2 131251Z 31007KT M04/M07 A3006 RMK A01 T10411068  RH  081%=      5-min Rain = 0
KHA2 131252Z 30008KT M04/M07 A3006 RMK A01 T10421068  RH  082%=      5-min Rain = 0
KHA2 131253Z 31007KT M04/M07 A3006 RMK A01 T10431069  RH  082%=      5-min Rain = 0
KHA2 131254Z 32007KT M04/M07 A3006 RMK A01 T10441069  RH  083%=      5-min Rain = 0
KHA2 131255Z 31007KT M05/M07 A3006 RMK A01 T10451069  RH  083%=      5-min Rain = 0
KHA2 131256Z 31007KT M05/M07 A3006 RMK A01 T10451068  RH  084%=      5-min Rain = 0
KHA2 131257Z 30007KT M05/M07 A3006 RMK A01 T10461069  RH  084%=      5-min Rain = 0
KHA2 131258Z 30008KT M05/M07 A3006 RMK A01 T10461069  RH  084%=      5-min Rain = 0
KHA2 131259Z 30008KT M05/M07 A3006 RMK A01 T10461068  RH  084%=      5-min Rain = 0
KHA2 131300Z 30009KT M05/M07 A3006 RMK A01 T10461069  RH  084%=      5-min Rain = 0
KHA2 131301Z 30010KT M05/M07 A3006 RMK A01 T10471069  RH  084%=      5-min Rain = 0
KHA2 131302Z 30008KT M05/M07 A3006 RMK A01 T10471070  RH  085%=      5-min Rain = 0
KHA2 131303Z 29008KT M05/M07 A3006 RMK A01 T10471069  RH  085%=      5-min Rain = 0
KHA2 131304Z 29011KT M05/M07 A3006 RMK A01 T10471069  RH  084%=      5-min Rain = 0
KHA2 131305Z 30011KT M04/M07 A3006 RMK A01 T10441068  RH  084%=      5-min Rain = 0
KHA2 131306Z 30010KT M04/M07 A3005 RMK A01 T10421068  RH  082%=      5-min Rain = 0
KHA2 131307Z 29011KT M04/M07 A3005 RMK A01 T10411068  RH  081%=      5-min Rain = 0
KHA2 131308Z 29011KT M04/M07 A3005 RMK A01 T10401068  RH  081%=      5-min Rain = 0
KHA2 131309Z 29009KT M04/M07 A3005 RMK A01 T10381068  RH  080%=      5-min Rain = 0
KHA2 131310Z 29009KT M04/M07 A3005 RMK A01 T10381069  RH  079%=      5-min Rain = 0
KHA2 131311Z 28008KT M04/M07 A3005 RMK A01 T10381069  RH  079%=      5-min Rain = 0
KHA2 131312Z 28009KT M04/M07 A3005 RMK A01 T10391070  RH  079%=      5-min Rain = 0
KHA2 131313Z 28010KT M04/M07 A3005 RMK A01 T10401070  RH  080%=      5-min Rain = 0
KHA2 131314Z 28011KT M04/M07 A3005 RMK A01 T10401070  RH  080%=      5-min Rain = 0
KHA2 131315Z 28010KT M04/M07 A3005 RMK A01 T10411070  RH  080%=      5-min Rain = 0
KHA2 131316Z 28009KT M04/M07 A3005 RMK A01 T10411070  RH  080%=      5-min Rain = 0
KHA2 131317Z 28009KT M04/M07 A3005 RMK A01 T10411070  RH  080%=      5-min Rain = 0
KHA2 131318Z 28010KT M04/M07 A3005 RMK A01 T10411070  RH  081%=      5-min Rain = 0
KHA2 131319Z 27011KT M04/M07 A3005 RMK A01 T10411070  RH  080%=      5-min Rain = 0
KHA2 131320Z 28010KT M04/M07 A3005 RMK A01 T10411070  RH  080%=      5-min Rain = 0
KHA2 131321Z 28010KT M04/M07 A3005 RMK A01 T10421070  RH  081%=      5-min Rain = 0
KHA2 131322Z 27009KT M04/M07 A3005 RMK A01 T10421070  RH  081%=      5-min Rain = 0
KHA2 131323Z 28009KT M04/M07 A3005 RMK A01 T10431070  RH  081%=      5-min Rain = 0
KHA2 131324Z 27009KT M04/M07 A3005 RMK A01 T10431070  RH  081%=      5-min Rain = 0
KHA2 131325Z 27009KT M04/M07 A3005 RMK A01 T10431070  RH  081%=      5-min Rain = 0
KHA2 131326Z 26007KT M04/M07 A3005 RMK A01 T10441070  RH  082%=      5-min Rain = 0
KHA2 131327Z 25006KT M04/M07 A3005 RMK A01 T10441071  RH  082%=      5-min Rain = 0
KHA2 131328Z 26006KT M05/M07 A3004 RMK A01 T10461073  RH  082%=      5-min Rain = 0
KHA2 131329Z 26006KT M05/M07 A3004 RMK A01 T10471074  RH  082%=      5-min Rain = 0
KHA2 131330Z 25006KT M05/M07 A3004 RMK A01 T10491074  RH  082%=      5-min Rain = 0
KHA2 131331Z 25006KT M05/M08 A3004 RMK A01 T10501075  RH  083%=      5-min Rain = 0
KHA2 131332Z 25005KT M05/M08 A3004 RMK A01 T10521076  RH  083%=      5-min Rain = 0
KHA2 131333Z 24005KT M05/M08 A3004 RMK A01 T10541077  RH  084%=      5-min Rain = 0
KHA2 131334Z 23005KT M06/M08 A3004 RMK A01 T10561079  RH  084%=      5-min Rain = 0
KHA2 131335Z 23004KT M06/M08 A3004 RMK A01 T10591082  RH  084%=      5-min Rain = 0
KHA2 131336Z 23004KT M06/M09 A3004 RMK A01 T10621085  RH  084%=      5-min Rain = 0
KHA2 131337Z 24004KT M07/M09 A3004 RMK A01 T10651088  RH  084%=      5-min Rain = 0
KHA2 131338Z 24005KT M07/M09 A3004 RMK A01 T10671088  RH  085%=      5-min Rain = 0
KHA2 131339Z 24005KT M07/M09 A3004 RMK A01 T10681088  RH  086%=      5-min Rain = 0
KHA2 131340Z 25005KT M07/M09 A3003 RMK A01 T10671085  RH  087%=      5-min Rain = 0
KHA2 131341Z 25005KT M07/M08 A3003 RMK A01 T10651080  RH  089%=      5-min Rain = 0
KHA2 131342Z 25006KT M06/M08 A3003 RMK A01 T10631078  RH  089%=      5-min Rain = 0
KHA2 131343Z 25006KT M06/M08 A3003 RMK A01 T10621078  RH  089%=      5-min Rain = 0
KHA2 131344Z 25006KT M06/M08 A3003 RMK A01 T10621078  RH  088%=      5-min Rain = 0
KHA2 131345Z 25007KT M06/M08 A3003 RMK A01 T10611078  RH  088%=      5-min Rain = 0
KHA2 131346Z 25007KT M06/M08 A3003 RMK A01 T10611078  RH  088%=      5-min Rain = 0
KHA2 131347Z 25008KT M06/M08 A3003 RMK A01 T10611078  RH  088%=      5-min Rain = 0
KHA2 131348Z 25008KT M06/M08 A3003 RMK A01 T10611079  RH  087%=      5-min Rain = 0
KHA2 131349Z 25008KT M06/M08 A3003 RMK A01 T10611079  RH  087%=      5-min Rain = 0
KHA2 131350Z 25007KT M06/M08 A3002 RMK A01 T10611078  RH  087%=      5-min Rain = 0
KHA2 131351Z 25007KT M06/M08 A3002 RMK A01 T10601077  RH  087%=      5-min Rain = 0
KHA2 131352Z 25007KT M06/M08 A3002 RMK A01 T10591077  RH  087%=      5-min Rain = 0
KHA2 131353Z 25007KT M06/M08 A3002 RMK A01 T10591077  RH  087%=      5-min Rain = 0
KHA2 131354Z 25008KT M06/M08 A3002 RMK A01 T10581076  RH  087%=      5-min Rain = 0
KHA2 131355Z 26007KT M06/M08 A3002 RMK A01 T10571076  RH  087%=      5-min Rain = 0
KHA2 131356Z 25008KT M06/M08 A3002 RMK A01 T10571076  RH  086%=      5-min Rain = 0
KHA2 131357Z 25008KT M06/M08 A3003 RMK A01 T10571076  RH  086%=      5-min Rain = 0
KHA2 131358Z 26009KT M06/M08 A3003 RMK A01 T10561076  RH  086%=      5-min Rain = 0
KHA2 131359Z 26010KT M06/M08 A3003 RMK A01 T10551075  RH  086%=      5-min Rain = 0
KHA2 131400Z 26010KT M06/M08 A3003 RMK A01 T10551075  RH  086%=      5-min Rain = 0
KHA2 131401Z 26009KT M05/M08 A3002 RMK A01 T10541075  RH  085%=      5-min Rain = 0
KHA2 131402Z 27009KT M05/M08 A3002 RMK A01 T10541075  RH  085%=      5-min Rain = 0
KHA2 131403Z 27010KT M05/M08 A3003 RMK A01 T10541075  RH  085%=      5-min Rain = 0
KHA2 131404Z 27009KT M05/M08 A3003 RMK A01 T10541075  RH  085%=      5-min Rain = 0
KHA2 131405Z 27009KT M05/M08 A3003 RMK A01 T10531075  RH  084%=      5-min Rain = 0
KHA2 131406Z 27009KT M05/M08 A3003 RMK A01 T10521075  RH  084%=      5-min Rain = 0
KHA2 131407Z 27009KT M05/M07 A3003 RMK A01 T10521074  RH  084%=      5-min Rain = 0
KHA2 131408Z 27008KT M05/M07 A3003 RMK A01 T10511074  RH  084%=      5-min Rain = 0
KHA2 131409Z 27007KT M05/M07 A3003 RMK A01 T10501073  RH  084%=      5-min Rain = 0
KHA2 131410Z 27007KT M05/M07 A3003 RMK A01 T10491073  RH  084%=      5-min Rain = 0
KHA2 131411Z 26009KT M05/M07 A3002 RMK A01 T10491073  RH  083%=      5-min Rain = 0
KHA2 131412Z 26010KT M05/M07 A3002 RMK A01 T10481073  RH  083%=      5-min Rain = 0
KHA2 131413Z 26009KT M05/M07 A3002 RMK A01 T10471073  RH  082%=      5-min Rain = 0
KHA2 131414Z 26008KT M05/M07 A3002 RMK A01 T10471073  RH  082%=      5-min Rain = 0
KHA2 131415Z 25009KT M05/M07 A3002 RMK A01 T10471073  RH  082%=      5-min Rain = 0
KHA2 131416Z 26009KT M05/M07 A3002 RMK A01 T10461073  RH  082%=      5-min Rain = 0
KHA2 131417Z 26008KT M05/M07 A3002 RMK A01 T10461073  RH  082%=      5-min Rain = 0
KHA2 131418Z 26008KT M05/M07 A3002 RMK A01 T10461073  RH  081%=      5-min Rain = 0
KHA2 131419Z 25007KT M05/M07 A3002 RMK A01 T10461073  RH  081%=      5-min Rain = 0
KHA2 131420Z 25007KT M05/M07 A3002 RMK A01 T10461073  RH  081%=      5-min Rain = 0
KHA2 131421Z 25007KT M05/M07 A3002 RMK A01 T10461072  RH  082%=      5-min Rain = 0
KHA2 131422Z 25007KT M05/M07 A3002 RMK A01 T10461072  RH  082%=      5-min Rain = 0
KHA2 131423Z 26007KT M05/M07 A3002 RMK A01 T10461072  RH  082%=      5-min Rain = 0
KHA2 131424Z 26007KT M05/M07 A3002 RMK A01 T10461072  RH  082%=      5-min Rain = 0
KHA2 131425Z 26008KT M05/M07 A3002 RMK A01 T10461072  RH  082%=      5-min Rain = 0
KHA2 131426Z 26008KT M05/M07 A3002 RMK A01 T10461072  RH  082%=      5-min Rain = 0
KHA2 131427Z 26008KT M05/M07 A3002 RMK A01 T10461072  RH  082%=      5-min Rain = 0
KHA2 131428Z 26008KT M05/M07 A3002 RMK A01 T10461072  RH  082%=      5-min Rain = 0
KHA2 131429Z 26008KT M05/M07 A3002 RMK A01 T10461071  RH  082%=      5-min Rain = 0
KHA2 131430Z 25008KT M05/M07 A3002 RMK A01 T10461071  RH  082%=      5-min Rain = 0
KHA2 131431Z 25007KT M05/M07 A3002 RMK A01 T10461072  RH  082%=      5-min Rain = 0
KHA2 131432Z 25007KT M05/M07 A3002 RMK A01 T10461072  RH  082%=      5-min Rain = 0
KHA2 131433Z 25007KT M05/M07 A3002 RMK A01 T10451071  RH  082%=      5-min Rain = 0
KHA2 131434Z 25006KT M05/M07 A3002 RMK A01 T10451071  RH  082%=      5-min Rain = 0
KHA2 131435Z 26007KT M05/M07 A3002 RMK A01 T10451070  RH  082%=      5-min Rain = 0
KHA2 131436Z 26008KT M04/M07 A3003 RMK A01 T10441070  RH  082%=      5-min Rain = 0
KHA2 131437Z 26007KT M04/M07 A3003 RMK A01 T10441070  RH  082%=      5-min Rain = 0
KHA2 131438Z 26007KT M04/M07 A3003 RMK A01 T10441070  RH  082%=      5-min Rain = 0
KHA2 131439Z 26006KT M04/M07 A3003 RMK A01 T10431069  RH  082%=      5-min Rain = 0
KHA2 131440Z 27007KT M04/M07 A3003 RMK A01 T10421068  RH  082%=      5-min Rain = 0
KHA2 131441Z 27009KT M04/M07 A3003 RMK A01 T10401067  RH  082%=      5-min Rain = 0
KHA2 131442Z 27009KT M04/M07 A3003 RMK A01 T10371066  RH  081%=      5-min Rain = 0
KHA2 131443Z 27010KT M04/M07 A3003 RMK A01 T10361066  RH  080%=      5-min Rain = 0
KHA2 131444Z 27010KT M04/M07 A3003 RMK A01 T10361066  RH  079%=      5-min Rain = 0
KHA2 131445Z 27011KT M04/M07 A3002 RMK A01 T10351066  RH  079%=      5-min Rain = 0
KHA2 131446Z 27010KT M04/M07 A3002 RMK A01 T10351066  RH  079%=      5-min Rain = 0
KHA2 131447Z 27010KT M04/M07 A3002 RMK A01 T10351066  RH  079%=      5-min Rain = 0
KHA2 131448Z 27010KT M03/M07 A3002 RMK A01 T10341066  RH  078%=      5-min Rain = 0
KHA2 131449Z 27009KT M03/M07 A3002 RMK A01 T10341066  RH  078%=      5-min Rain = 0
KHA2 131450Z 27010KT M03/M07 A3002 RMK A01 T10331066  RH  078%=      5-min Rain = 0
KHA2 131451Z 27009KT M03/M07 A3002 RMK A01 T10321066  RH  077%=      5-min Rain = 0
KHA2 131452Z 26011KT M03/M07 A3002 RMK A01 T10311066  RH  077%=      5-min Rain = 0
KHA2 131453Z 27011KT M03/M07 A3002 RMK A01 T10311066  RH  077%=      5-min Rain = 0
KHA2 131454Z 27011KT M03/M07 A3002 RMK A01 T10311065  RH  077%=      5-min Rain = 0
KHA2 131455Z 27012KT M03/M06 A3002 RMK A01 T10291064  RH  077%=      5-min Rain = 0
KHA2 131456Z 27011KT M03/M06 A3002 RMK A01 T10281063  RH  077%=      5-min Rain = 0
KHA2 131457Z 27012KT M03/M06 A3002 RMK A01 T10281063  RH  077%=      5-min Rain = 0
KHA2 131458Z 27012KT M03/M06 A3002 RMK A01 T10271063  RH  076%=      5-min Rain = 0
KHA2 131459Z 27011KT M03/M06 A3002 RMK A01 T10281063  RH  077%=      5-min Rain = 0
KHA2 131500Z 27011KT M03/M06 A3002 RMK A01 T10271063  RH  077%=      5-min Rain = 0
KHA2 131501Z 27012KT M03/M06 A3002 RMK A01 T10271063  RH  076%=      5-min Rain = 0
KHA2 131502Z 27011KT M03/M06 A3002 RMK A01 T10271062  RH  076%=      5-min Rain = 0
KHA2 131503Z 27011KT M03/M06 A3002 RMK A01 T10261062  RH  077%=      5-min Rain = 0
KHA2 131504Z 27011KT M03/M06 A3002 RMK A01 T10261061  RH  077%=      5-min Rain = 0
KHA2 131505Z 27012KT M03/M06 A3002 RMK A01 T10261061  RH  076%=      5-min Rain = 0
KHA2 131506Z 27013KT M03/M06 A3002 RMK A01 T10251061  RH  076%=      5-min Rain = 0
KHA2 131507Z 26012KT M02/M06 A3002 RMK A01 T10241061  RH  075%=      5-min Rain = 0
KHA2 131508Z 26012KT M02/M06 A3001 RMK A01 T10231061  RH  075%=      5-min Rain = 0
KHA2 131509Z 26011KT M02/M06 A3001 RMK A01 T10231060  RH  076%=      5-min Rain = 0
KHA2 131510Z 27011KT M02/M06 A3001 RMK A01 T10231059  RH  076%=      5-min Rain = 0
KHA2 131511Z 27012KT M02/M06 A3001 RMK A01 T10221059  RH  076%=      5-min Rain = 0
KHA2 131512Z 27012KT M02/M06 A3001 RMK A01 T10211058  RH  076%=      5-min Rain = 0
KHA2 131513Z 27012KT M02/M06 A3001 RMK A01 T10201058  RH  075%=      5-min Rain = 0
KHA2 131514Z 26012KT M02/M06 A3001 RMK A01 T10191057  RH  075%=      5-min Rain = 0
KHA2 131515Z 26012KT M02/M06 A3001 RMK A01 T10181056  RH  075%=      5-min Rain = 0
KHA2 131516Z 26011KT M02/M06 A3001 RMK A01 T10161056  RH  074%=      5-min Rain = 0
KHA2 131517Z 27011KT M02/M06 A3001 RMK A01 T10151056  RH  074%=      5-min Rain = 0
KHA2 131518Z 27012KT M01/M05 A3001 RMK A01 T10141054  RH  074%=      5-min Rain = 0
KHA2 131519Z 27012KT M01/M05 A3001 RMK A01 T10131054  RH  074%=      5-min Rain = 0
KHA2 131520Z 27012KT M01/M05 A3001 RMK A01 T10131054  RH  073%=      5-min Rain = 0
KHA2 131521Z 27012KT M01/M06 A3001 RMK A01 T10121055  RH  073%=      5-min Rain = 0
KHA2 131522Z 27012KT M01/M06 A3001 RMK A01 T10111056  RH  072%=      5-min Rain = 0
KHA2 131523Z 27011KT M01/M06 A3001 RMK A01 T10111055  RH  072%=      5-min Rain = 0
KHA2 131524Z 27012KT M01/M06 A3001 RMK A01 T10111055  RH  072%=      5-min Rain = 0
KHA2 131525Z 27012KT M01/M05 A3001 RMK A01 T10111054  RH  072%=      5-min Rain = 0
KHA2 131526Z 27010KT M01/M05 A3001 RMK A01 T10111053  RH  073%=      5-min Rain = 0
KHA2 131527Z 27011KT M01/M05 A3001 RMK A01 T10111052  RH  074%=      5-min Rain = 0
KHA2 131528Z 27010KT M01/M05 A3001 RMK A01 T10101051  RH  074%=      5-min Rain = 0
KHA2 131529Z 27010KT M01/M05 A3001 RMK A01 T10101050  RH  074%=      5-min Rain = 0
KHA2 131530Z 27011KT M01/M05 A3001 RMK A01 T10101050  RH  074%=      5-min Rain = 0
KHA2 131531Z 26011KT M01/M05 A3001 RMK A01 T10101050  RH  074%=      5-min Rain = 0
KHA2 131532Z 26012KT M01/M05 A3001 RMK A01 T10101050  RH  074%=      5-min Rain = 0
KHA2 131533Z 26011KT M01/M05 A3001 RMK A01 T10091049  RH  074%=      5-min Rain = 0
KHA2 131534Z 26012KT M01/M05 A3001 RMK A01 T10071047  RH  074%=      5-min Rain = 0
KHA2 131535Z 26012KT M01/M05 A3001 RMK A01 T10051046  RH  074%=      5-min Rain = 0
KHA2 131536Z 26012KT M01/M05 A3001 RMK A01 T10051047  RH  073%=      5-min Rain = 0
KHA2 131537Z 27011KT M01/M05 A3001 RMK A01 T10051046  RH  073%=      5-min Rain = 0
KHA2 131538Z 26013KT M00/M05 A3001 RMK A01 T10041045  RH  074%=      5-min Rain = 0
KHA2 131539Z 26013KT M00/M05 A3001 RMK A01 T10041046  RH  073%=      5-min Rain = 0
KHA2 131540Z 26011KT M00/M05 A3001 RMK A01 T10031045  RH  074%=      5-min Rain = 0
KHA2 131541Z 27011KT M00/M04 A3001 RMK A01 T10031044  RH  074%=      5-min Rain = 0
KHA2 131542Z 27013KT M00/M04 A3001 RMK A01 T10021043  RH  074%=      5-min Rain = 0
KHA2 131543Z 27012KT M00/M04 A3001 RMK A01 T10031044  RH  073%=      5-min Rain = 0
KHA2 131544Z 27012KT M00/M04 A3001 RMK A01 T10031044  RH  074%=      5-min Rain = 0
KHA2 131545Z 27010KT M00/M04 A3001 RMK A01 T10031042  RH  074%=      5-min Rain = 0
KHA2 131546Z 27012KT M00/M04 A3001 RMK A01 T10011041  RH  075%=      5-min Rain = 0
KHA2 131547Z 27011KT M00/M04 A3001 RMK A01 T10011042  RH  074%=      5-min Rain = 0
KHA2 131548Z 28011KT M00/M04 A3001 RMK A01 T10011042  RH  074%=      5-min Rain = 0
KHA2 131549Z 27011KT 00/04 A3002 RMK A01 T00-00-42  RH  073%=      5-min Rain = 0
KHA2 131550Z 27012KT 00/04 A3002 RMK A01 T00000-40  RH  074%=      5-min Rain = 0
KHA2 131551Z 27012KT 00/M04 A3002 RMK A01 T00011041  RH  074%=      5-min Rain = 0
KHA2 131552Z 27012KT 00/04 A3001 RMK A01 T00000-41  RH  074%=      5-min Rain = 0
KHA2 131553Z 27012KT 00/04 A3001 RMK A01 T00000-40  RH  074%=      5-min Rain = 0
KHA2 131554Z 27012KT 00/04 A3001 RMK A01 T00000-39  RH  075%=      5-min Rain = 0
KHA2 131555Z 27011KT 00/M04 A3002 RMK A01 T00011038  RH  075%=      5-min Rain = 0
KHA2 131556Z 27011KT 00/M04 A3002 RMK A01 T00011037  RH  075%=      5-min Rain = 0
KHA2 131557Z 27011KT 00/M04 A3002 RMK A01 T00011036  RH  076%=      5-min Rain = 0
KHA2 131558Z 27011KT 00/M04 A3002 RMK A01 T00011036  RH  076%=      5-min Rain = 0
KHA2 131559Z 27010KT 00/M04 A3002 RMK A01 T00021036  RH  076%=      5-min Rain = 0
KHA2 131600Z 27011KT 00/M04 A3002 RMK A01 T00021035  RH  076%=      5-min Rain = 0
KHA2 131601Z 27010KT 00/M04 A3002 RMK A01 T00021036  RH  076%=      5-min Rain = 0
KHA2 131602Z 26011KT 00/M04 A3002 RMK A01 T00031035  RH  076%=      5-min Rain = 0
KHA2 131603Z 26011KT 00/M03 A3002 RMK A01 T00041034  RH  076%=      5-min Rain = 0
KHA2 131604Z 26011KT 01/M03 A3002 RMK A01 T00051032  RH  076%=      5-min Rain = 0
KHA2 131605Z 26011KT 01/M03 A3002 RMK A01 T00061031  RH  076%=      5-min Rain = 0
KHA2 131606Z 26011KT 01/M03 A3002 RMK A01 T00071030  RH  076%=      5-min Rain = 0
KHA2 131607Z 26011KT 01/M03 A3002 RMK A01 T00081031  RH  075%=      5-min Rain = 0
KHA2 131608Z 26010KT 01/M03 A3002 RMK A01 T00081031  RH  075%=      5-min Rain = 0
KHA2 131609Z 25011KT 01/M03 A3002 RMK A01 T00091030  RH  075%=      5-min Rain = 0
KHA2 131610Z 26010KT 01/M03 A3002 RMK A01 T00101029  RH  075%=      5-min Rain = 0
KHA2 131611Z 26011KT 01/M03 A3002 RMK A01 T00121027  RH  076%=      5-min Rain = 0
KHA2 131612Z 26010KT 01/M03 A3002 RMK A01 T00121029  RH  074%=      5-min Rain = 0
KHA2 131613Z 25011KT 01/M03 A3003 RMK A01 T00121028  RH  075%=      5-min Rain = 0
KHA2 131614Z 25011KT 01/M03 A3002 RMK A01 T00131027  RH  075%=      5-min Rain = 0
KHA2 131615Z 25011KT 01/M03 A3003 RMK A01 T00131027  RH  075%=      5-min Rain = 0
KHA2 131616Z 26011KT 02/M02 A3003 RMK A01 T00151024  RH  075%=      5-min Rain = 0
KHA2 131617Z 25010KT 02/M03 A3003 RMK A01 T00161026  RH  074%=      5-min Rain = 0
KHA2 131618Z 26011KT 02/M03 A3003 RMK A01 T00161026  RH  074%=      5-min Rain = 0
KHA2 131619Z 26010KT 02/M03 A3003 RMK A01 T00161026  RH  073%=      5-min Rain = 0
KHA2 131620Z 26011KT 02/M03 A3003 RMK A01 T00181025  RH  074%=      5-min Rain = 0
KHA2 131621Z 26012KT 02/M02 A3003 RMK A01 T00191024  RH  073%=      5-min Rain = 0
KHA2 131622Z 26011KT 02/M02 A3003 RMK A01 T00201024  RH  073%=      5-min Rain = 0
KHA2 131623Z 26010KT 02/M03 A3002 RMK A01 T00201026  RH  072%=      5-min Rain = 0
KHA2 131624Z 26011KT 02/M03 A3002 RMK A01 T00211025  RH  072%=      5-min Rain = 0
KHA2 131625Z 25011KT 02/M03 A3002 RMK A01 T00221025  RH  071%=      5-min Rain = 0
KHA2 131626Z 25013KT 02/M03 A3002 RMK A01 T00231025  RH  070%=      5-min Rain = 0
KHA2 131627Z 26012KT 02/M03 A3002 RMK A01 T00241026  RH  070%=      5-min Rain = 0
KHA2 131628Z 25012KT 02/M03 A3002 RMK A01 T00241026  RH  069%=      5-min Rain = 0
KHA2 131629Z 26011KT 03/M03 A3002 RMK A01 T00251025  RH  069%=      5-min Rain = 0
KHA2 131630Z 26013KT 03/M03 A3002 RMK A01 T00261025  RH  069%=      5-min Rain = 0
KHA2 131631Z 26012KT 03/M03 A3002 RMK A01 T00271025  RH  069%=      5-min Rain = 0
KHA2 131632Z 25011KT 03/M03 A3002 RMK A01 T00281025  RH  068%=      5-min Rain = 0
KHA2 131633Z 26012KT 03/M02 A3002 RMK A01 T00291024  RH  068%=      5-min Rain = 0
KHA2 131634Z 26011KT 03/M03 A3002 RMK A01 T00291026  RH  067%=      5-min Rain = 0
KHA2 131635Z 26011KT 03/M03 A3002 RMK A01 T00301025  RH  067%=      5-min Rain = 0
KHA2 131636Z 26011KT 03/M03 A3002 RMK A01 T00301025  RH  067%=      5-min Rain = 0
KHA2 131637Z 26012KT 03/M02 A3002 RMK A01 T00321022  RH  068%=      5-min Rain = 0
KHA2 131638Z 26011KT 03/M02 A3002 RMK A01 T00331021  RH  068%=      5-min Rain = 0
KHA2 131639Z 27010KT 03/M02 A3003 RMK A01 T00341020  RH  067%=      5-min Rain = 0
KHA2 131640Z 27011KT 04/M02 A3003 RMK A01 T00351020  RH  067%=      5-min Rain = 0
KHA2 131641Z 27011KT 04/M02 A3002 RMK A01 T00361021  RH  066%=      5-min Rain = 0
KHA2 131642Z 27010KT 04/M02 A3002 RMK A01 T00361019  RH  067%=      5-min Rain = 0
KHA2 131643Z 27011KT 04/M01 A3002 RMK A01 T00391014  RH  068%=      5-min Rain = 0
KHA2 131644Z 27012KT 04/M02 A3002 RMK A01 T00411015  RH  067%=      5-min Rain = 0
KHA2 131645Z 27013KT 04/M02 A3002 RMK A01 T00411017  RH  066%=      5-min Rain = 0
KHA2 131646Z 27013KT 04/M02 A3002 RMK A01 T00401019  RH  065%=      5-min Rain = 0
KHA2 131647Z 27014KT 04/M02 A3002 RMK A01 T00401020  RH  065%=      5-min Rain = 0
KHA2 131648Z 27013KT 04/M02 A3002 RMK A01 T00401019  RH  065%=      5-min Rain = 0
KHA2 131649Z 28013KT 04/M02 A3002 RMK A01 T00401018  RH  066%=      5-min Rain = 0
KHA2 131650Z 27012KT 04/M02 A3002 RMK A01 T00411019  RH  065%=      5-min Rain = 0
KHA2 131651Z 27013KT 04/M02 A3002 RMK A01 T00431019  RH  064%=      5-min Rain = 0
KHA2 131652Z 28012KT 05/M02 A3002 RMK A01 T00451018  RH  064%=      5-min Rain = 0
KHA2 131653Z 28014KT 05/M02 A3002 RMK A01 T00461019  RH  062%=      5-min Rain = 0
KHA2 131654Z 28014KT 05/M02 A3002 RMK A01 T00481020  RH  061%=      5-min Rain = 0
KHA2 131655Z 28012KT 05/M02 A3002 RMK A01 T00501018  RH  061%=      5-min Rain = 0
KHA2 131656Z 28015KT 05/M02 A3002 RMK A01 T00511017  RH  061%=      5-min Rain = 0
KHA2 131657Z 28012KT 05/M02 A3003 RMK A01 T00521019  RH  060%=      5-min Rain = 0
KHA2 131658Z 28011KT 05/M02 A3003 RMK A01 T00521017  RH  061%=      5-min Rain = 0
KHA2 131659Z 29013KT 05/M02 A3003 RMK A01 T00531019  RH  060%=      5-min Rain = 0
KHA2 131700Z 28010KT 05/M02 A3003 RMK A01 T00531018  RH  060%=      5-min Rain = 0
KHA2 131701Z 28011KT 05/M01 A3003 RMK A01 T00541014  RH  062%=      5-min Rain = 0
KHA2 131702Z 29012KT 05/M02 A3003 RMK A01 T00541016  RH  061%=      5-min Rain = 0
KHA2 131703Z 29011KT 05/M02 A3003 RMK A01 T00541016  RH  060%=      5-min Rain = 0
KHA2 131704Z 29010KT 05/M02 A3003 RMK A01 T00541016  RH  060%=      5-min Rain = 0
KHA2 131705Z 28011KT 06/M02 A3003 RMK A01 T00551016  RH  060%=      5-min Rain = 0
KHA2 131706Z 29011KT 06/M02 A3003 RMK A01 T00581019  RH  058%=      5-min Rain = 0
KHA2 131707Z 28011KT 06/M02 A3003 RMK A01 T00601021  RH  056%=      5-min Rain = 0
KHA2 131708Z 28010KT 06/M02 A3002 RMK A01 T00601024  RH  055%=      5-min Rain = 0
KHA2 131709Z 28011KT 06/M03 A3002 RMK A01 T00591027  RH  054%=      5-min Rain = 0
KHA2 131710Z 28010KT 06/M03 A3002 RMK A01 T00581027  RH  054%=      5-min Rain = 0
KHA2 131711Z 28011KT 06/M03 A3002 RMK A01 T00571026  RH  055%=      5-min Rain = 0
KHA2 131712Z 29011KT 06/M03 A3002 RMK A01 T00571026  RH  055%=      5-min Rain = 0
KHA2 131713Z 28012KT 06/M03 A3002 RMK A01 T00561026  RH  055%=      5-min Rain = 0
KHA2 131714Z 28010KT 06/M03 A3002 RMK A01 T00571027  RH  055%=      5-min Rain = 0
KHA2 131715Z 28009KT 06/M03 A3002 RMK A01 T00561025  RH  056%=      5-min Rain = 0
KHA2 131716Z 29012KT 06/M03 A3002 RMK A01 T00561027  RH  055%=      5-min Rain = 0
KHA2 131717Z 29011KT 06/M03 A3002 RMK A01 T00561029  RH  054%=      5-min Rain = 0
KHA2 131718Z 28010KT 06/M03 A3002 RMK A01 T00561027  RH  055%=      5-min Rain = 0
KHA2 131719Z 29010KT 06/M03 A3001 RMK A01 T00561028  RH  055%=      5-min Rain = 0
KHA2 131720Z 28011KT 06/M03 A3001 RMK A01 T00561029  RH  054%=      5-min Rain = 0
KHA2 131721Z 29010KT 06/M03 A3001 RMK A01 T00561031  RH  053%=      5-min Rain = 0
KHA2 131722Z 29010KT 06/M03 A3001 RMK A01 T00571028  RH  055%=      5-min Rain = 0
KHA2 131723Z 28011KT 06/M03 A3001 RMK A01 T00581026  RH  055%=      5-min Rain = 0
KHA2 131724Z 29012KT 06/M03 A3001 RMK A01 T00601027  RH  054%=      5-min Rain = 0
KHA2 131725Z 29011KT 06/M03 A3001 RMK A01 T00611027  RH  053%=      5-min Rain = 0
KHA2 131726Z 28010KT 06/M03 A3001 RMK A01 T00611027  RH  053%=      5-min Rain = 0
KHA2 131727Z 28010KT 06/M03 A3001 RMK A01 T00611025  RH  054%=      5-min Rain = 0
KHA2 131728Z 28011KT 06/M03 A3001 RMK A01 T00611026  RH  054%=      5-min Rain = 0
KHA2 131729Z 28009KT 06/M02 A3001 RMK A01 T00621023  RH  055%=      5-min Rain = 0
KHA2 131730Z 28010KT 06/M02 A3001 RMK A01 T00641020  RH  055%=      5-min Rain = 0
KHA2 131731Z 28011KT 07/M02 A3001 RMK A01 T00651022  RH  054%=      5-min Rain = 0
KHA2 131732Z 28011KT 07/M03 A3001 RMK A01 T00651025  RH  052%=      5-min Rain = 0
KHA2 131733Z 28011KT 07/M03 A3001 RMK A01 T00651026  RH  052%=      5-min Rain = 0
KHA2 131734Z 28013KT 07/M03 A3001 RMK A01 T00651027  RH  052%=      5-min Rain = 0
KHA2 131735Z 28012KT 06/M03 A3001 RMK A01 T00641026  RH  052%=      5-min Rain = 0
KHA2 131736Z 28011KT 07/M03 A3001 RMK A01 T00661026  RH  052%=      5-min Rain = 0
KHA2 131737Z 29012KT 07/M02 A3001 RMK A01 T00671024  RH  053%=      5-min Rain = 0
KHA2 131738Z 29012KT 07/M02 A3001 RMK A01 T00681024  RH  052%=      5-min Rain = 0
KHA2 131739Z 29011KT 07/M03 A3001 RMK A01 T00681026  RH  051%=      5-min Rain = 0
KHA2 131740Z 29011KT 07/M03 A3001 RMK A01 T00691026  RH  051%=      5-min Rain = 0
KHA2 131741Z 28011KT 07/M03 A3001 RMK A01 T00701026  RH  050%=      5-min Rain = 0
KHA2 131742Z 29010KT 07/M03 A3001 RMK A01 T00721026  RH  050%=      5-min Rain = 0
KHA2 131743Z 28010KT 07/M02 A30 RMK A01 T00741024  RH  050%=      5-min Rain = 0
KHA2 131744Z 29010KT 08/M02 A30 RMK A01 T00751024  RH  050%=      5-min Rain = 0
KHA2 131745Z 29011KT 08/M03 A30 RMK A01 T00761026  RH  049%=      5-min Rain = 0
KHA2 131746Z 29010KT 08/M02 A30 RMK A01 T00761024  RH  049%=      5-min Rain = 0
KHA2 131747Z 29011KT 08/M02 A3001 RMK A01 T00771024  RH  049%=      5-min Rain = 0
KHA2 131748Z 29011KT 08/M03 A3001 RMK A01 T00781027  RH  047%=      5-min Rain = 0
KHA2 131749Z 29010KT 08/M03 A3001 RMK A01 T00781025  RH  048%=      5-min Rain = 0
KHA2 131750Z 29010KT 08/M02 A3001 RMK A01 T00811020  RH  049%=      5-min Rain = 0
KHA2 131751Z 30010KT 08/M02 A3001 RMK A01 T00831020  RH  048%=      5-min Rain = 0
KHA2 131752Z 30011KT 09/M02 A3001 RMK A01 T00851021  RH  047%=      5-min Rain = 0
KHA2 131753Z 29011KT 09/M02 A30 RMK A01 T00861022  RH  046%=      5-min Rain = 0
KHA2 131754Z 29010KT 09/M03 A30 RMK A01 T00861025  RH  046%=      5-min Rain = 0
KHA2 131755Z 29011KT 09/M03 A30 RMK A01 T00871027  RH  045%=      5-min Rain = 0
KHA2 131756Z 29010KT 09/M03 A30 RMK A01 T00861029  RH  044%=      5-min Rain = 0
KHA2 131757Z 29009KT 09/M03 A30 RMK A01 T00871030  RH  044%=      5-min Rain = 0
KHA2 131758Z 28010KT 09/M03 A2999 RMK A01 T00891029  RH  043%=      5-min Rain = 0
KHA2 131759Z 29011KT 09/M03 A2999 RMK A01 T00891032  RH  042%=      5-min Rain = 0
KHA2 131800Z 29012KT 09/M04 A2999 RMK A01 T00891036  RH  041%=      5-min Rain = 0
KHA2 131801Z 29011KT 09/M04 A2999 RMK A01 T00891037  RH  041%=      5-min Rain = 0
KHA2 131802Z 29012KT 09/M04 A2999 RMK A01 T00891038  RH  041%=      5-min Rain = 0
KHA2 131803Z 29011KT 09/M04 A2999 RMK A01 T00891036  RH  041%=      5-min Rain = 0
KHA2 131804Z 29010KT 09/M04 A2999 RMK A01 T00881035  RH  041%=      5-min Rain = 0
KHA2 131805Z 30009KT 09/M03 A2999 RMK A01 T00891032  RH  042%=      5-min Rain = 0
KHA2 131806Z 29009KT 09/M03 A2999 RMK A01 T00911028  RH  043%=      5-min Rain = 0
KHA2 131807Z 29010KT 09/M03 A2999 RMK A01 T00921028  RH  043%=      5-min Rain = 0
KHA2 131808Z 29008KT 09/M03 A2999 RMK A01 T00911030  RH  042%=      5-min Rain = 0
KHA2 131809Z 29010KT 09/M03 A2999 RMK A01 T00911030  RH  042%=      5-min Rain = 0
KHA2 131810Z 28009KT 09/M03 A2998 RMK A01 T00911031  RH  042%=      5-min Rain = 0
KHA2 131811Z 28008KT 09/M03 A2998 RMK A01 T00911033  RH  042%=      5-min Rain = 0
KHA2 131812Z 29007KT 09/M03 A2998 RMK A01 T00901031  RH  042%=      5-min Rain = 0
KHA2 131813Z 29007KT 09/M03 A2998 RMK A01 T00921029  RH  043%=      5-min Rain = 0
KHA2 131814Z 28008KT 09/M03 A2998 RMK A01 T00931030  RH  042%=      5-min Rain = 0
KHA2 131815Z 28009KT 09/M03 A2998 RMK A01 T00931028  RH  042%=      5-min Rain = 0
KHA2 131816Z 29010KT 09/M03 A2998 RMK A01 T00931031  RH  041%=      5-min Rain = 0
KHA2 131817Z 29007KT 09/M03 A2998 RMK A01 T00941030  RH  042%=      5-min Rain = 0
KHA2 131818Z 29007KT 10/M03 A2998 RMK A01 T00961026  RH  042%=      5-min Rain = 0
KHA2 131819Z 29007KT 10/M03 A2998 RMK A01 T00971030  RH  041%=      5-min Rain = 0
KHA2 131820Z 29009KT 10/M03 A2997 RMK A01 T00961030  RH  041%=      5-min Rain = 0
KHA2 131821Z 28008KT 10/M03 A2997 RMK A01 T00961029  RH  041%=      5-min Rain = 0
KHA2 131822Z 28009KT 10/M03 A2997 RMK A01 T00971027  RH  042%=      5-min Rain = 0
KHA2 131823Z 28008KT 10/M03 A2997 RMK A01 T00981025  RH  042%=      5-min Rain = 0
KHA2 131824Z 28008KT 10/M02 A2997 RMK A01 T01001022  RH  042%=      5-min Rain = 0
KHA2 131825Z 28008KT 10/M03 A2997 RMK A01 T01011025  RH  041%=      5-min Rain = 0
KHA2 131826Z 29007KT 10/M03 A2997 RMK A01 T01011026  RH  041%=      5-min Rain = 0
KHA2 131827Z 29007KT 10/M02 A2997 RMK A01 T01021024  RH  041%=      5-min Rain = 0
KHA2 131828Z 29007KT 10/M03 A2997 RMK A01 T01021027  RH  040%=      5-min Rain = 0
KHA2 131829Z 30008KT 10/M03 A2997 RMK A01 T01031027  RH  040%=      5-min Rain = 0
KHA2 131830Z 30010KT 10/M03 A2996 RMK A01 T01041029  RH  039%=      5-min Rain = 0
KHA2 131831Z 29009KT 11/M03 A2996 RMK A01 T01051026  RH  040%=      5-min Rain = 0
KHA2 131832Z 28008KT 11/M02 A2996 RMK A01 T01081022  RH  040%=      5-min Rain = 0
KHA2 131833Z 29009KT 11/M03 A2996 RMK A01 T01101026  RH  039%=      5-min Rain = 0
KHA2 131834Z 30009KT 11/M03 A2996 RMK A01 T01101032  RH  037%=      5-min Rain = 0
KHA2 131835Z 28007KT 11/M03 A2996 RMK A01 T01101029  RH  038%=      5-min Rain = 0
KHA2 131836Z 29007KT 11/M03 A2996 RMK A01 T01121027  RH  038%=      5-min Rain = 0
KHA2 131837Z 29007KT 11/M03 A2996 RMK A01 T01121033  RH  036%=      5-min Rain = 0
KHA2 131838Z 30008KT 11/M03 A2996 RMK A01 T01111030  RH  037%=      5-min Rain = 0
KHA2 131839Z 29006KT 11/M03 A2996 RMK A01 T01111029  RH  037%=      5-min Rain = 0
KHA2 131840Z 29006KT 11/M03 A2995 RMK A01 T01121028  RH  037%=      5-min Rain = 0
KHA2 131841Z 27007KT 11/M02 A2995 RMK A01 T01131024  RH  038%=      5-min Rain = 0
KHA2 131842Z 28006KT 11/M02 A2995 RMK A01 T01141022  RH  039%=      5-min Rain = 0
KHA2 131843Z 30005KT 11/M02 A2995 RMK A01 T01141019  RH  039%=      5-min Rain = 0
KHA2 131844Z 30004KT 12/M02 A2995 RMK A01 T01151020  RH  039%=      5-min Rain = 0
KHA2 131845Z 28006KT 12/M02 A2995 RMK A01 T01161016  RH  040%=      5-min Rain = 0
KHA2 131846Z 27006KT 12/M02 A2995 RMK A01 T01171017  RH  039%=      5-min Rain = 0
KHA2 131847Z 27005KT 12/M01 A2995 RMK A01 T01191014  RH  040%=      5-min Rain = 0
KHA2 131848Z 27005KT 12/M01 A2995 RMK A01 T01211014  RH  039%=      5-min Rain = 0
KHA2 131849Z 27006KT 12/M02 A2995 RMK A01 T01211022  RH  037%=      5-min Rain = 0
KHA2 131850Z 27007KT 12/M02 A2995 RMK A01 T01201024  RH  037%=      5-min Rain = 0
KHA2 131851Z 28005KT 12/M03 A2995 RMK A01 T01201025  RH  036%=      5-min Rain = 0
KHA2 131852Z 27003KT 12/M02 A2995 RMK A01 T01191023  RH  037%=      5-min Rain = 0
KHA2 131853Z 26005KT 12/M02 A2995 RMK A01 T01211019  RH  038%=      5-min Rain = 0
KHA2 131854Z 24004KT 12/M02 A2995 RMK A01 T01231017  RH  038%=      5-min Rain = 0
KHA2 131855Z 24005KT 12/M02 A2994 RMK A01 T01231017  RH  038%=      5-min Rain = 0
KHA2 131856Z 25007KT 12/M01 A2994 RMK A01 T01241011  RH  039%=      5-min Rain = 0
KHA2 131857Z 27006KT 13/M02 A2994 RMK A01 T01251015  RH  038%=      5-min Rain = 0
KHA2 131858Z 25005KT 12/M02 A2994 RMK A01 T01241019  RH  037%=      5-min Rain = 0
KHA2 131859Z 26004KT 12/M02 A2994 RMK A01 T01221020  RH  037%=      5-min Rain = 0
KHA2 131900Z 26004KT 12/M02 A2994 RMK A01 T01221015  RH  039%=      5-min Rain = 0
KHA2 131901Z 28007KT 12/M01 A2994 RMK A01 T01241014  RH  038%=      5-min Rain = 0
KHA2 131902Z 26005KT 13/M02 A2994 RMK A01 T01251018  RH  037%=      5-min Rain = 0
KHA2 131903Z 25004KT 13/M02 A2994 RMK A01 T01251018  RH  037%=      5-min Rain = 0
KHA2 131904Z 26004KT 13/M01 A2994 RMK A01 T01271011  RH  039%=      5-min Rain = 0
KHA2 131905Z 25007KT 13/M01 A2993 RMK A01 T01291008  RH  039%=      5-min Rain = 0
KHA2 131906Z 25007KT 13/M01 A2993 RMK A01 T01301009  RH  038%=      5-min Rain = 0
KHA2 131907Z 26008KT 13/M01 A2993 RMK A01 T01301011  RH  038%=      5-min Rain = 0
KHA2 131908Z 26006KT 13/M02 A2993 RMK A01 T01281015  RH  037%=      5-min Rain = 0
KHA2 131909Z 25006KT 13/M01 A2993 RMK A01 T01281009  RH  039%=      5-min Rain = 0
KHA2 131910Z 25007KT 13/M01 A2993 RMK A01 T01301012  RH  037%=      5-min Rain = 0
KHA2 131911Z 24006KT 13/M02 A2993 RMK A01 T01291017  RH  036%=      5-min Rain = 0
KHA2 131912Z 26007KT 13/M02 A2993 RMK A01 T01291016  RH  037%=      5-min Rain = 0
KHA2 131913Z 27006KT 13/M02 A2993 RMK A01 T01291017  RH  036%=      5-min Rain = 0
KHA2 131914Z 26007KT 13/M02 A2993 RMK A01 T01291015  RH  037%=      5-min Rain = 0
KHA2 131915Z 27005KT 13/M02 A2993 RMK A01 T01301019  RH  036%=      5-min Rain = 0
KHA2 131916Z 26008KT 13/M02 A2992 RMK A01 T01301016  RH  036%=      5-min Rain = 0
KHA2 131917Z 25007KT 13/M02 A2992 RMK A01 T01301020  RH  035%=      5-min Rain = 0
KHA2 131918Z 25009KT 13/M02 A2992 RMK A01 T01321016  RH  036%=      5-min Rain = 0
KHA2 131919Z 26008KT 13/M02 A2992 RMK A01 T01331023  RH  034%=      5-min Rain = 0
KHA2 131920Z 26007KT 13/M02 A2992 RMK A01 T01321024  RH  034%=      5-min Rain = 0
KHA2 131921Z 26007KT 13/M02 A2992 RMK A01 T01311023  RH  034%=      5-min Rain = 0
KHA2 131922Z 27008KT 13/M02 A2992 RMK A01 T01331015  RH  036%=      5-min Rain = 0
KHA2 131923Z 27009KT 13/M02 A2992 RMK A01 T01341016  RH  035%=      5-min Rain = 0
KHA2 131924Z 26009KT 14/M02 A2992 RMK A01 T01351018  RH  035%=      5-min Rain = 0
KHA2 131925Z 26009KT 13/M02 A2992 RMK A01 T01341019  RH  034%=      5-min Rain = 0
KHA2 131926Z 26010KT 14/M02 A2992 RMK A01 T01351020  RH  034%=      5-min Rain = 0
KHA2 131927Z 27009KT 14/M02 A2992 RMK A01 T01351022  RH  034%=      5-min Rain = 0
KHA2 131928Z 27009KT 14/M02 A2992 RMK A01 T01351022  RH  034%=      5-min Rain = 0
KHA2 131929Z 27010KT 14/M02 A2992 RMK A01 T01361019  RH  034%=      5-min Rain = 0
KHA2 131930Z 26010KT 14/M02 A2992 RMK A01 T01361019  RH  034%=      5-min Rain = 0
KHA2 131931Z 25008KT 14/M02 A2992 RMK A01 T01371017  RH  034%=      5-min Rain = 0
KHA2 131932Z 25009KT 14/M01 A2991 RMK A01 T01391013  RH  035%=      5-min Rain = 0
KHA2 131933Z 25010KT 14/M01 A2991 RMK A01 T01421011  RH  035%=      5-min Rain = 0
KHA2 131934Z 25010KT 14/M02 A2991 RMK A01 T01431019  RH  033%=      5-min Rain = 0
KHA2 131935Z 25009KT 14/M02 A2991 RMK A01 T01411022  RH  032%=      5-min Rain = 0
KHA2 131936Z 26008KT 14/M02 A2991 RMK A01 T01411019  RH  033%=      5-min Rain = 0
KHA2 131937Z 26008KT 14/M02 A2991 RMK A01 T01421016  RH  034%=      5-min Rain = 0
KHA2 131938Z 25009KT 14/M02 A2991 RMK A01 T01431016  RH  033%=      5-min Rain = 0
KHA2 131939Z 25008KT 14/M02 A2991 RMK A01 T01431021  RH  032%=      5-min Rain = 0
KHA2 131940Z 25009KT 14/M01 A2991 RMK A01 T01441014  RH  034%=      5-min Rain = 0
KHA2 131941Z 25009KT 15/M02 A2991 RMK A01 T01461015  RH  033%=      5-min Rain = 0
KHA2 131942Z 25009KT 15/M02 A2991 RMK A01 T01461015  RH  033%=      5-min Rain = 0
KHA2 131943Z 25009KT 15/M01 A2991 RMK A01 T01471014  RH  033%=      5-min Rain = 0
KHA2 131944Z 25008KT 15/M02 A2991 RMK A01 T01471021  RH  031%=      5-min Rain = 0
KHA2 131945Z 24009KT 15/M02 A2991 RMK A01 T01461020  RH  032%=      5-min Rain = 0
KHA2 131946Z 25008KT 15/M02 A2991 RMK A01 T01461020  RH  032%=      5-min Rain = 0
KHA2 131947Z 27007KT 15/M02 A2991 RMK A01 T01461020  RH  032%=      5-min Rain = 0
KHA2 131948Z 27008KT 15/M01 A2991 RMK A01 T01471013  RH  033%=      5-min Rain = 0
KHA2 131949Z 25007KT 15/M02 A2991 RMK A01 T01481015  RH  032%=      5-min Rain = 0
KHA2 131950Z 26007KT 15/M02 A2991 RMK A01 T01481015  RH  033%=      5-min Rain = 0
KHA2 131951Z 25009KT 15/M02 A299 RMK A01 T01481017  RH  032%=      5-min Rain = 0
KHA2 131952Z 26007KT 15/M02 A2991 RMK A01 T01491020  RH  031%=      5-min Rain = 0
KHA2 131953Z 28006KT 15/M02 A2991 RMK A01 T01491019  RH  031%=      5-min Rain = 0
KHA2 131954Z 28006KT 15/M01 A299 RMK A01 T01491014  RH  033%=      5-min Rain = 0
KHA2 131955Z 27006KT 15/M01 A299 RMK A01 T01501009  RH  034%=      5-min Rain = 0
KHA2 131956Z 27007KT 15/M01 A299 RMK A01 T01521008  RH  033%=      5-min Rain = 0
KHA2 131957Z 26007KT 15/M01 A299 RMK A01 T01531012  RH  032%=      5-min Rain = 0
KHA2 131958Z 26008KT 15/M01 A299 RMK A01 T01531014  RH  032%=      5-min Rain = 0
KHA2 131959Z 25008KT 15/M02 A299 RMK A01 T01521019  RH  031%=      5-min Rain = 0
KHA2 132000Z 27007KT 15/M02 A299 RMK A01 T01501019  RH  031%=      5-min Rain = 0
KHA2 132001Z 26008KT 15/M02 A299 RMK A01 T01501020  RH  031%=      5-min Rain = 0
KHA2 132002Z 27009KT 15/M02 A299 RMK A01 T01521015  RH  032%=      5-min Rain = 0
KHA2 132003Z 29007KT 15/M02 A299 RMK A01 T01521018  RH  031%=      5-min Rain = 0
KHA2 132004Z 29008KT 15/M02 A299 RMK A01 T01511022  RH  030%=      5-min Rain = 0
KHA2 132005Z 29007KT 15/M02 A299 RMK A01 T01501015  RH  032%=      5-min Rain = 0
KHA2 132006Z 28007KT 15/M02 A299 RMK A01 T01521018  RH  031%=      5-min Rain = 0
KHA2 132007Z 27008KT 15/M02 A299 RMK A01 T01521020  RH  030%=      5-min Rain = 0
KHA2 132008Z 27008KT 15/M02 A299 RMK A01 T01531021  RH  030%=      5-min Rain = 0
KHA2 132009Z 27008KT 15/M02 A299 RMK A01 T01531017  RH  031%=      5-min Rain = 0
KHA2 132010Z 27009KT 15/M02 A299 RMK A01 T01541016  RH  031%=      5-min Rain = 0
KHA2 132011Z 27008KT 15/M02 A299 RMK A01 T01531016  RH  031%=      5-min Rain = 0
KHA2 132012Z 29008KT 15/M02 A299 RMK A01 T01541015  RH  031%=      5-min Rain = 0
KHA2 132013Z 29009KT 16/M02 A299 RMK A01 T01551018  RH  030%=      5-min Rain = 0
KHA2 132014Z 29008KT 16/M02 A299 RMK A01 T01561017  RH  031%=      5-min Rain = 0
KHA2 132015Z 28009KT 16/M01 A299 RMK A01 T01571011  RH  032%=      5-min Rain = 0
KHA2 132016Z 29008KT 16/M01 A299 RMK A01 T01581009  RH  032%=      5-min Rain = 0
KHA2 132017Z 29008KT 16/M01 A299 RMK A01 T01581013  RH  031%=      5-min Rain = 0
KHA2 132018Z 27008KT 16/M01 A299 RMK A01 T01581012  RH  031%=      5-min Rain = 0
KHA2 132019Z 29007KT 16/M01 A299 RMK A01 T01591010  RH  031%=      5-min Rain = 0
KHA2 132020Z 29009KT 16/M01 A299 RMK A01 T01591011  RH  031%=      5-min Rain = 0
KHA2 132021Z 29008KT 16/M01 A299 RMK A01 T01591013  RH  031%=      5-min Rain = 0
KHA2 132022Z 27009KT 16/M01 A299 RMK A01 T01591012  RH  031%=      5-min Rain = 0
KHA2 132023Z 28009KT 16/M01 A299 RMK A01 T01591012  RH  031%=      5-min Rain = 0
KHA2 132024Z 27009KT 16/M01 A299 RMK A01 T01591012  RH  031%=      5-min Rain = 0
KHA2 132025Z 28008KT 16/M01 A299 RMK A01 T01581011  RH  031%=      5-min Rain = 0
KHA2 132026Z 29006KT 16/M01 A299 RMK A01 T01591007  RH  032%=      5-min Rain = 0
KHA2 132027Z 27006KT 16/M00 A299 RMK A01 T01611002  RH  033%=      5-min Rain = 0
KHA2 132028Z 27008KT 16/M01 A299 RMK A01 T01621009  RH  031%=      5-min Rain = 0
KHA2 132029Z 27008KT 16/M01 A299 RMK A01 T01611006  RH  032%=      5-min Rain = 0
KHA2 132030Z 29007KT 16/M00 A299 RMK A01 T01621003  RH  033%=      5-min Rain = 0
KHA2 132031Z 29006KT 16/M00 A299 RMK A01 T01631002  RH  033%=      5-min Rain = 0
KHA2 132032Z 29008KT 16/M00 A299 RMK A01 T01631001  RH  033%=      5-min Rain = 0
KHA2 132033Z 28006KT 16/M01 A299 RMK A01 T01631007  RH  031%=      5-min Rain = 0
KHA2 132047Z 00000KT 17/M01 A2991 RMK A01 T01661009  RH  030%=      5-min Rain = 0
KHA2 132048Z 29007KT 17/M01 A2991 RMK A01 T01661010  RH  030%=      5-min Rain = 0
KHA2 132049Z 30009KT 17/M01 A299 RMK A01 T01671009  RH  030%=      5-min Rain = 0
KHA2 132050Z 29007KT 17/M02 A299 RMK A01 T01671015  RH  029%=      5-min Rain = 0
KHA2 132051Z 30007KT 17/M01 A299 RMK A01 T01671010  RH  030%=      5-min Rain = 0
KHA2 132052Z 30007KT 17/M02 A299 RMK A01 T01671017  RH  028%=      5-min Rain = 0
KHA2 132053Z 28007KT 17/M01 A299 RMK A01 T01681014  RH  029%=      5-min Rain = 0
KHA2 132054Z 27007KT 17/M01 A299 RMK A01 T01671010  RH  030%=      5-min Rain = 0
KHA2 132055Z 28006KT 17/M01 A299 RMK A01 T01671010  RH  030%=      5-min Rain = 0
KHA2 132056Z 27009KT 17/M01 A299 RMK A01 T01671010  RH  030%=      5-min Rain = 0
KHA2 132057Z 28006KT 17/M01 A299 RMK A01 T01681014  RH  029%=      5-min Rain = 0
KHA2 132058Z 28006KT 17/M01 A299 RMK A01 T01671011  RH  030%=      5-min Rain = 0
KHA2 132059Z 27007KT 17/M01 A299 RMK A01 T01681007  RH  030%=      5-min Rain = 0
KHA2 132100Z 27007KT 17/M01 A299 RMK A01 T01681008  RH  030%=      5-min Rain = 0
KHA2 132101Z 27007KT 17/M01 A299 RMK A01 T01681010  RH  030%=      5-min Rain = 0
KHA2 132102Z 27005KT 17/M02 A299 RMK A01 T01681015  RH  029%=      5-min Rain = 0
KHA2 132103Z 27007KT 17/M01 A299 RMK A01 T01671014  RH  029%=      5-min Rain = 0
KHA2 132104Z 28006KT 17/M01 A299 RMK A01 T01671013  RH  029%=      5-min Rain = 0
KHA2 132105Z 30006KT 17/M02 A299 RMK A01 T01671015  RH  029%=      5-min Rain = 0
KHA2 132106Z 29006KT 17/M02 A299 RMK A01 T01671018  RH  028%=      5-min Rain = 0
KHA2 132107Z 27007KT 17/M02 A299 RMK A01 T01671015  RH  029%=      5-min Rain = 0
KHA2 132108Z 28009KT 17/M01 A299 RMK A01 T01691014  RH  029%=      5-min Rain = 0
KHA2 132109Z 29007KT 17/M02 A299 RMK A01 T01691015  RH  029%=      5-min Rain = 0
KHA2 132110Z 27006KT 17/M01 A2989 RMK A01 T01701009  RH  030%=      5-min Rain = 0
KHA2 132111Z 28006KT 17/M01 A2989 RMK A01 T01711007  RH  030%=      5-min Rain = 0
KHA2 132112Z 28006KT 17/M00 A2989 RMK A01 T01721004  RH  030%=      5-min Rain = 0
KHA2 132113Z 27006KT 17/M01 A2989 RMK A01 T01731007  RH  030%=      5-min Rain = 0
KHA2 132114Z 28008KT 17/M01 A2989 RMK A01 T01731009  RH  029%=      5-min Rain = 0
KHA2 132115Z 29007KT 17/M01 A2989 RMK A01 T01731011  RH  029%=      5-min Rain = 0
KHA2 132116Z 28009KT 17/M01 A2989 RMK A01 T01731010  RH  029%=      5-min Rain = 0
KHA2 132117Z 27007KT 17/M01 A2989 RMK A01 T01721010  RH  029%=      5-min Rain = 0
KHA2 132118Z 27007KT 17/M00 A2989 RMK A01 T01711004  RH  030%=      5-min Rain = 0
KHA2 132119Z 28006KT 17/M00 A2989 RMK A01 T01711004  RH  030%=      5-min Rain = 0
KHA2 132120Z 28006KT 17/M00 A2989 RMK A01 T01711003  RH  031%=      5-min Rain = 0
KHA2 132121Z 28006KT 17/M00 A2989 RMK A01 T01711004  RH  030%=      5-min Rain = 0
KHA2 132122Z 29006KT 17/M01 A2989 RMK A01 T01711005  RH  030%=      5-min Rain = 0
KHA2 132123Z 29006KT 17/M01 A2989 RMK A01 T01711006  RH  030%=      5-min Rain = 0
KHA2 132124Z 29007KT 17/M01 A2989 RMK A01 T01711007  RH  030%=      5-min Rain = 0
KHA2 132125Z 28006KT 17/M01 A2989 RMK A01 T01711008  RH  030%=      5-min Rain = 0
KHA2 132126Z 28006KT 17/M01 A2989 RMK A01 T01711009  RH  029%=      5-min Rain = 0
KHA2 132127Z 28007KT 17/M01 A2989 RMK A01 T01711010  RH  029%=      5-min Rain = 0
KHA2 132128Z 28007KT 17/M01 A2989 RMK A01 T01721012  RH  029%=      5-min Rain = 0
KHA2 132129Z 28007KT 17/M01 A2989 RMK A01 T01721013  RH  028%=      5-min Rain = 0
KHA2 132130Z 27007KT 17/M01 A2989 RMK A01 T01731013  RH  028%=      5-min Rain = 0
KHA2 132131Z 28007KT 17/M01 A2989 RMK A01 T01731012  RH  028%=      5-min Rain = 0
KHA2 132132Z 29008KT 17/M01 A2989 RMK A01 T01741011  RH  028%=      5-min Rain = 0
KHA2 132133Z 29007KT 18/M01 A2989 RMK A01 T01751010  RH  028%=      5-min Rain = 0
KHA2 132134Z 29008KT 18/M01 A2989 RMK A01 T01751013  RH  028%=      5-min Rain = 0
KHA2 132135Z 29008KT 18/M02 A2989 RMK A01 T01751015  RH  027%=      5-min Rain = 0
KHA2 132136Z 29008KT 18/M01 A2988 RMK A01 T01761013  RH  028%=      5-min Rain = 0
KHA2 132137Z 29008KT 18/M02 A2988 RMK A01 T01761015  RH  027%=      5-min Rain = 0
KHA2 132138Z 29007KT 18/M01 A2988 RMK A01 T01761014  RH  027%=      5-min Rain = 0
KHA2 132139Z 29008KT 18/M01 A2988 RMK A01 T01761011  RH  028%=      5-min Rain = 0
KHA2 132140Z 29007KT 18/M01 A2988 RMK A01 T01771013  RH  027%=      5-min Rain = 0
KHA2 132141Z 29006KT 18/M01 A2988 RMK A01 T01771012  RH  028%=      5-min Rain = 0
KHA2 132142Z 29007KT 18/M01 A2988 RMK A01 T01781008  RH  028%=      5-min Rain = 0
KHA2 132143Z 28007KT 18/M02 A2988 RMK A01 T01791015  RH  027%=      5-min Rain = 0
KHA2 132144Z 28007KT 18/M02 A2988 RMK A01 T01791016  RH  027%=      5-min Rain = 0
KHA2 132145Z 29006KT 18/M01 A2988 RMK A01 T01791014  RH  027%=      5-min Rain = 0
KHA2 132146Z 29005KT 18/M02 A2988 RMK A01 T01791015  RH  027%=      5-min Rain = 0
KHA2 132147Z 29006KT 18/M02 A2988 RMK A01 T01781015  RH  027%=      5-min Rain = 0
KHA2 132148Z 28005KT 18/M01 A2988 RMK A01 T01781014  RH  027%=      5-min Rain = 0
KHA2 132149Z 28007KT 18/M02 A2988 RMK A01 T01781015  RH  027%=      5-min Rain = 0
KHA2 132150Z 28005KT 18/M02 A2988 RMK A01 T01781017  RH  027%=      5-min Rain = 0
KHA2 132151Z 27006KT 18/M02 A2988 RMK A01 T01771015  RH  027%=      5-min Rain = 0
KHA2 132152Z 28005KT 18/M02 A2988 RMK A01 T01771018  RH  026%=      5-min Rain = 0
KHA2 132153Z 27004KT 18/M02 A2988 RMK A01 T01781017  RH  026%=      5-min Rain = 0
KHA2 132154Z 27004KT 18/M02 A2988 RMK A01 T01791016  RH  027%=      5-min Rain = 0
KHA2 132155Z 27004KT 18/M01 A2988 RMK A01 T01801014  RH  027%=      5-min Rain = 0
KHA2 132156Z 27005KT 18/M02 A2988 RMK A01 T01801015  RH  026%=      5-min Rain = 0
KHA2 132157Z 28005KT 18/M02 A2988 RMK A01 T01811016  RH  026%=      5-min Rain = 0
KHA2 132158Z 28005KT 18/M01 A2988 RMK A01 T01811014  RH  027%=      5-min Rain = 0
KHA2 132159Z 28005KT 18/M01 A2988 RMK A01 T01811009  RH  028%=      5-min Rain = 0
KHA2 132200Z 29005KT 18/M01 A2988 RMK A01 T01801005  RH  028%=      5-min Rain = 0
KHA2 132201Z 28005KT 18/M01 A2988 RMK A01 T01811009  RH  028%=      5-min Rain = 0
KHA2 132202Z 27005KT 18/M01 A2988 RMK A01 T01811013  RH  027%=      5-min Rain = 0
KHA2 132203Z 29004KT 18/M01 A2987 RMK A01 T01801011  RH  027%=      5-min Rain = 0
KHA2 132204Z 29005KT 18/M01 A2987 RMK A01 T01791013  RH  027%=      5-min Rain = 0
KHA2 132205Z 28005KT 18/M02 A2987 RMK A01 T01791016  RH  027%=      5-min Rain = 0
KHA2 132206Z 29005KT 18/M02 A2987 RMK A01 T01791021  RH  026%=      5-min Rain = 0
KHA2 132207Z 28004KT 18/M02 A2987 RMK A01 T01791016  RH  027%=      5-min Rain = 0
KHA2 132208Z 28005KT 18/M02 A2987 RMK A01 T01791015  RH  027%=      5-min Rain = 0
KHA2 132209Z 27003KT 18/M01 A2987 RMK A01 T01791013  RH  027%=      5-min Rain = 0
KHA2 132210Z 28003KT 18/M01 A2987 RMK A01 T01791007  RH  028%=      5-min Rain = 0
KHA2 132211Z 27004KT 18/M01 A2987 RMK A01 T01791010  RH  028%=      5-min Rain = 0
KHA2 132212Z 27004KT 18/M01 A2987 RMK A01 T01801010  RH  028%=      5-min Rain = 0
KHA2 132213Z 27003KT 18/M01 A2987 RMK A01 T01811010  RH  027%=      5-min Rain = 0
KHA2 132214Z 27004KT 18/M01 A2987 RMK A01 T01821013  RH  027%=      5-min Rain = 0
KHA2 132215Z 27003KT 18/M01 A2987 RMK A01 T01831012  RH  027%=      5-min Rain = 0
KHA2 132216Z 26004KT 18/M01 A2987 RMK A01 T01831014  RH  026%=      5-min Rain = 0
KHA2 132217Z 27004KT 18/M02 A2987 RMK A01 T01841017  RH  026%=      5-min Rain = 0
KHA2 132218Z 27004KT 18/M02 A2987 RMK A01 T01841019  RH  025%=      5-min Rain = 0
KHA2 132219Z 27004KT 18/M02 A2987 RMK A01 T01841019  RH  025%=      5-min Rain = 0
KHA2 132220Z 27004KT 18/M02 A2987 RMK A01 T01831023  RH  025%=      5-min Rain = 0
KHA2 132221Z 26005KT 18/M02 A2987 RMK A01 T01821024  RH  025%=      5-min Rain = 0
KHA2 132222Z 27004KT 18/M03 A2987 RMK A01 T01821025  RH  024%=      5-min Rain = 0
KHA2 132223Z 27003KT 18/M02 A2987 RMK A01 T01811022  RH  025%=      5-min Rain = 0
KHA2 132224Z 28004KT 18/M02 A2987 RMK A01 T01811017  RH  026%=      5-min Rain = 0
KHA2 132225Z 28003KT 18/M02 A2987 RMK A01 T01811017  RH  026%=      5-min Rain = 0
KHA2 132226Z 28003KT 18/M02 A2987 RMK A01 T01821015  RH  026%=      5-min Rain = 0
KHA2 132227Z 28003KT 18/M02 A2987 RMK A01 T01821017  RH  026%=      5-min Rain = 0
KHA2 132228Z 27003KT 18/M02 A2987 RMK A01 T01821020  RH  025%=      5-min Rain = 0
KHA2 132229Z 29004KT 18/M02 A2987 RMK A01 T01821020  RH  025%=      5-min Rain = 0
KHA2 132230Z 28004KT 18/M02 A2987 RMK A01 T01821021  RH  025%=      5-min Rain = 0
KHA2 132231Z 28003KT 18/M02 A2987 RMK A01 T01821017  RH  026%=      5-min Rain = 0
KHA2 132232Z 26003KT 18/M01 A2987 RMK A01 T01821011  RH  027%=      5-min Rain = 0
KHA2 132233Z 27003KT 18/M02 A2987 RMK A01 T01811015  RH  026%=      5-min Rain = 0
KHA2 132234Z 26003KT 18/M02 A2987 RMK A01 T01811018  RH  026%=      5-min Rain = 0
KHA2 132235Z 25003KT 18/M02 A2987 RMK A01 T01801015  RH  026%=      5-min Rain = 0
KHA2 132236Z 26003KT 18/M02 A2987 RMK A01 T01801021  RH  025%=      5-min Rain = 0
KHA2 132237Z 25002KT 18/M02 A2987 RMK A01 T01801017  RH  026%=      5-min Rain = 0
KHA2 132238Z 25002KT 18/M02 A2987 RMK A01 T01801015  RH  026%=      5-min Rain = 0
KHA2 132239Z 25003KT 18/M02 A2987 RMK A01 T01801017  RH  026%=      5-min Rain = 0
KHA2 132240Z 25003KT 18/M02 A2987 RMK A01 T01801020  RH  026%=      5-min Rain = 0
KHA2 132241Z 26003KT 18/M02 A2987 RMK A01 T01801019  RH  026%=      5-min Rain = 0
KHA2 132242Z 26002KT 18/M02 A2987 RMK A01 T01811020  RH  026%=      5-min Rain = 0
KHA2 132243Z 26003KT 18/M02 A2987 RMK A01 T01811015  RH  026%=      5-min Rain = 0
KHA2 132244Z 26002KT 18/M02 A2987 RMK A01 T01821016  RH  026%=      5-min Rain = 0
KHA2 132245Z 25002KT 18/M02 A2987 RMK A01 T01821019  RH  026%=      5-min Rain = 0
KHA2 132246Z 24002KT 18/M02 A2987 RMK A01 T01821020  RH  025%=      5-min Rain = 0
KHA2 132247Z 24001KT 18/M02 A2987 RMK A01 T01821020  RH  025%=      5-min Rain = 0
KHA2 132248Z 23001KT 18/M01 A2987 RMK A01 T01831012  RH  027%=      5-min Rain = 0
KHA2 132249Z 23002KT 18/M01 A2987 RMK A01 T01841005  RH  028%=      5-min Rain = 0
KHA2 132250Z 22001KT 18/M01 A2987 RMK A01 T01841009  RH  027%=      5-min Rain = 0
KHA2 132251Z 22002KT 18/M01 A2987 RMK A01 T01841005  RH  028%=      5-min Rain = 0
KHA2 132252Z 22002KT 18/M01 A2987 RMK A01 T01841009  RH  027%=      5-min Rain = 0
KHA2 132253Z 22002KT 18/M01 A2987 RMK A01 T01841009  RH  027%=      5-min Rain = 0
KHA2 132254Z 22002KT 18/M01 A2987 RMK A01 T01831010  RH  027%=      5-min Rain = 0
KHA2 132255Z 22002KT 18/M01 A2987 RMK A01 T01821010  RH  027%=      5-min Rain = 0
KHA2 132256Z 22002KT 18/M01 A2987 RMK A01 T01811008  RH  028%=      5-min Rain = 0
KHA2 132257Z 22002KT 18/M01 A2987 RMK A01 T01791010  RH  028%=      5-min Rain = 0
KHA2 132258Z 23002KT 18/M01 A2987 RMK A01 T01781011  RH  028%=      5-min Rain = 0
KHA2 132259Z 23002KT 18/M01 A2987 RMK A01 T01771013  RH  028%=      5-min Rain = 0
KHA2 132300Z 23002KT 18/M01 A2987 RMK A01 T01761012  RH  028%=      5-min Rain = 0
KHA2 132301Z 23002KT 18/M01 A2987 RMK A01 T01751014  RH  028%=      5-min Rain = 0
KHA2 132302Z 23002KT 18/M01 A2987 RMK A01 T01751014  RH  028%=      5-min Rain = 0
KHA2 132303Z 22002KT 18/M01 A2987 RMK A01 T01751014  RH  028%=      5-min Rain = 0
KHA2 132304Z 22002KT 17/M01 A2987 RMK A01 T01741012  RH  028%=      5-min Rain = 0
KHA2 132305Z 21002KT 17/M01 A2987 RMK A01 T01731009  RH  029%=      5-min Rain = 0
KHA2 132306Z 21002KT 17/M01 A2987 RMK A01 T01721008  RH  029%=      5-min Rain = 0
KHA2 132307Z 23002KT 17/M01 A2987 RMK A01 T01711008  RH  030%=      5-min Rain = 0
KHA2 132308Z 24003KT 17/M01 A2987 RMK A01 T01691009  RH  030%=      5-min Rain = 0
KHA2 132309Z 24003KT 17/M01 A2987 RMK A01 T01691008  RH  030%=      5-min Rain = 0
KHA2 132310Z 25002KT 17/M01 A2987 RMK A01 T01681005  RH  031%=      5-min Rain = 0
KHA2 132311Z 25002KT 17/M00 A2987 RMK A01 T01661003  RH  032%=      5-min Rain = 0
KHA2 132312Z 26003KT 16/00 A2987 RMK A01 T01640000  RH  033%=      5-min Rain = 0
KHA2 132313Z 26002KT 16/00 A2987 RMK A01 T01630003  RH  034%=      5-min Rain = 0
KHA2 132314Z 26002KT 16/01 A2987 RMK A01 T01610005  RH  035%=      5-min Rain = 0
KHA2 132315Z 27003KT 16/01 A2987 RMK A01 T01600007  RH  035%=      5-min Rain = 0
KHA2 132316Z 27002KT 16/01 A2987 RMK A01 T01600005  RH  035%=      5-min Rain = 0
KHA2 132317Z 26002KT 16/00 A2987 RMK A01 T01610004  RH  034%=      5-min Rain = 0
KHA2 132318Z 26003KT 16/00 A2987 RMK A01 T01630001  RH  033%=      5-min Rain = 0
KHA2 132319Z 25003KT 16/00 A2987 RMK A01 T01640003  RH  033%=      5-min Rain = 0
KHA2 132320Z 24002KT 17/01 A2987 RMK A01 T01660006  RH  034%=      5-min Rain = 0
KHA2 132321Z 25002KT 17/01 A2987 RMK A01 T01670006  RH  034%=      5-min Rain = 0
KHA2 132322Z 25002KT 17/01 A2987 RMK A01 T01670011  RH  035%=      5-min Rain = 0
KHA2 132323Z 27001KT 17/02 A2987 RMK A01 T01660015  RH  036%=      5-min Rain = 0
KHA2 132324Z 28001KT 17/01 A2987 RMK A01 T01650008  RH  035%=      5-min Rain = 0
KHA2 132325Z 28001KT 17/01 A2987 RMK A01 T01650008  RH  034%=      5-min Rain = 0
KHA2 132326Z 30002KT 17/01 A2987 RMK A01 T01650005  RH  034%=      5-min Rain = 0
KHA2 132327Z 33002KT 17/01 A2988 RMK A01 T01650007  RH  034%=      5-min Rain = 0
KHA2 132328Z 35002KT 16/00 A2988 RMK A01 T01640002  RH  033%=      5-min Rain = 0
KHA2 132329Z 34002KT 16/M01 A2988 RMK A01 T01631007  RH  031%=      5-min Rain = 0
KHA2 132330Z 36003KT 16/M00 A2988 RMK A01 T01621004  RH  032%=      5-min Rain = 0
KHA2 132331Z 01003KT 16/M00 A2988 RMK A01 T01611003  RH  033%=      5-min Rain = 0
KHA2 132332Z 01003KT 16/00 A2988 RMK A01 T01590003  RH  034%=      5-min Rain = 0
KHA2 132333Z 02003KT 16/01 A2988 RMK A01 T01570009  RH  037%=      5-min Rain = 0
KHA2 132334Z 01003KT 15/01 A2988 RMK A01 T01540014  RH  039%=      5-min Rain = 0
KHA2 132335Z 01003KT 15/01 A2988 RMK A01 T01510014  RH  039%=      5-min Rain = 0
KHA2 132336Z 01003KT 15/01 A2988 RMK A01 T01480011  RH  039%=      5-min Rain = 0
KHA2 132337Z 01002KT 15/01 A2988 RMK A01 T01460008  RH  039%=      5-min Rain = 0
KHA2 132338Z 01002KT 15/M00 A2988 RMK A01 T01451001  RH  037%=      5-min Rain = 0
KHA2 132339Z 00003KT 15/M00 A2988 RMK A01 T01451003  RH  036%=      5-min Rain = 0
KHA2 132340Z 00003KT 15/00 A2988 RMK A01 T014500-0  RH  037%=      5-min Rain = 0
KHA2 132341Z 36003KT 15/M00 A2988 RMK A01 T01451002  RH  037%=      5-min Rain = 0
KHA2 132342Z 35003KT 14/M00 A2988 RMK A01 T01441003  RH  036%=      5-min Rain = 0
KHA2 132343Z 35003KT 14/M01 A2988 RMK A01 T01431005  RH  036%=      5-min Rain = 0
KHA2 132344Z 36003KT 14/M01 A2988 RMK A01 T01431006  RH  036%=      5-min Rain = 0
KHA2 132345Z 00003KT 14/M01 A2988 RMK A01 T01421008  RH  036%=      5-min Rain = 0
KHA2 132346Z 00003KT 14/M01 A2988 RMK A01 T01411009  RH  036%=      5-min Rain = 0
KHA2 132347Z 00003KT 14/M01 A2988 RMK A01 T01411010  RH  035%=      5-min Rain = 0
KHA2 132348Z 00003KT 14/M01 A2988 RMK A01 T01401011  RH  035%=      5-min Rain = 0
KHA2 132349Z 00003KT 14/M01 A2988 RMK A01 T01391011  RH  036%=      5-min Rain = 0
KHA2 132350Z 00003KT 14/M01 A2988 RMK A01 T01381013  RH  035%=      5-min Rain = 0
KHA2 132351Z 36003KT 14/M01 A2988 RMK A01 T01371012  RH  036%=      5-min Rain = 0
KHA2 132352Z 00004KT 14/M02 A2988 RMK A01 T01361017  RH  035%=      5-min Rain = 0
KHA2 132353Z 00003KT 14/M03 A2988 RMK A01 T01361027  RH  032%=      5-min Rain = 0
KHA2 132354Z 00003KT 14/M03 A2988 RMK A01 T01361034  RH  031%=      5-min Rain = 0
KHA2 132355Z 00003KT 14/M04 A2988 RMK A01 T01361037  RH  030%=      5-min Rain = 0
KHA2 132356Z 00003KT 14/M04 A2988 RMK A01 T01361036  RH  030%=      5-min Rain = 0
KHA2 132357Z 36003KT 14/M04 A2988 RMK A01 T01361035  RH  030%=      5-min Rain = 0
KHA2 132358Z 00003KT 14/M03 A2988 RMK A01 T01361027  RH  032%=      5-min Rain = 0
KHA2 132359Z 00003KT 13/M03 A2988 RMK A01 T01341025  RH  033%=      5-min Rain = 0
KHA2 140000Z 35003KT 13/M03 A2988 RMK A01 T01341028  RH  033%=      5-min Rain = 0
KHA2 140001Z 35003KT 13/M03 A2988 RMK A01 T01341029  RH  032%=      5-min Rain = 0
KHA2 140002Z 34003KT 13/M03 A2988 RMK A01 T01331026  RH  033%=      5-min Rain = 0
KHA2 140003Z 34003KT 13/M02 A2988 RMK A01 T01311020  RH  035%=      5-min Rain = 0
KHA2 140004Z 34003KT 13/M02 A2988 RMK A01 T01271017  RH  037%=      5-min Rain = 0
KHA2 140005Z 33002KT 13/M02 A2988 RMK A01 T01261019  RH  036%=      5-min Rain = 0
KHA2 140006Z 32002KT 13/M02 A2988 RMK A01 T01271020  RH  036%=      5-min Rain = 0
KHA2 140007Z 32002KT 13/M02 A2988 RMK A01 T01281017  RH  037%=      5-min Rain = 0
KHA2 140008Z 32002KT 13/M02 A2988 RMK A01 T01271018  RH  037%=      5-min Rain = 0
KHA2 140009Z 32002KT 13/M02 A2988 RMK A01 T01271020  RH  036%=      5-min Rain = 0
KHA2 140010Z 32002KT 13/M02 A2988 RMK A01 T01281022  RH  035%=      5-min Rain = 0
KHA2 140011Z 33002KT 13/M02 A2988 RMK A01 T01291022  RH  035%=      5-min Rain = 0
KHA2 140012Z 33002KT 13/M02 A2988 RMK A01 T01301021  RH  035%=      5-min Rain = 0
KHA2 140013Z 33002KT 13/M02 A2988 RMK A01 T01301021  RH  035%=      5-min Rain = 0
KHA2 140014Z 34002KT 13/M02 A2988 RMK A01 T01301021  RH  035%=      5-min Rain = 0
KHA2 140015Z 34002KT 13/M02 A2988 RMK A01 T01301022  RH  035%=      5-min Rain = 0
KHA2 140016Z 34001KT 13/M02 A2988 RMK A01 T01301023  RH  035%=      5-min Rain = 0
KHA2 140017Z 34001KT 13/M02 A2988 RMK A01 T01301024  RH  034%=      5-min Rain = 0
KHA2 140018Z 34001KT 13/M03 A2988 RMK A01 T01291025  RH  034%=      5-min Rain = 0
KHA2 140019Z 34001KT 13/M03 A2988 RMK A01 T01291030  RH  033%=      5-min Rain = 0
KHA2 140020Z 34001KT 13/M04 A2987 RMK A01 T01301035  RH  032%=      5-min Rain = 0
KHA2 140021Z 34001KT 13/M04 A2987 RMK A01 T01311036  RH  031%=      5-min Rain = 0
KHA2 140022Z 34001KT 13/M03 A2987 RMK A01 T01311034  RH  032%=      5-min Rain = 0
KHA2 140023Z 34001KT 13/M03 A2987 RMK A01 T01301027  RH  033%=      5-min Rain = 0
KHA2 140024Z 34001KT 13/M03 A2987 RMK A01 T01281026  RH  034%=      5-min Rain = 0
KHA2 140025Z 34001KT 13/M03 A2987 RMK A01 T01281033  RH  032%=      5-min Rain = 0
KHA2 140026Z 34000KT 13/M03 A2987 RMK A01 T01281030  RH  033%=      5-min Rain = 0
KHA2 140027Z 34000KT 12/M02 A2987 RMK A01 T01231022  RH  036%=      5-min Rain = 0
KHA2 140028Z 20001KT 11/M03 A2987 RMK A01 T01121032  RH  036%=      5-min Rain = 0
KHA2 140029Z 22000KT 11/M03 A2987 RMK A01 T01061033  RH  038%=      5-min Rain = 0
KHA2 140030Z 21000KT 10/M03 A2987 RMK A01 T01041029  RH  039%=      5-min Rain = 0
KHA2 140031Z 00000KT 10/M03 A2987 RMK A01 T01011029  RH  040%=      5-min Rain = 0
KHA2 140032Z 00000KT 10/M03 A2987 RMK A01 T01001027  RH  041%=      5-min Rain = 0
KHA2 140033Z 00000KT 10/M03 A2987 RMK A01 T00991027  RH  041%=      5-min Rain = 0
KHA2 140034Z 00000KT 10/M03 A2987 RMK A01 T01011028  RH  040%=      5-min Rain = 0
KHA2 140035Z 23001KT 11/M03 A2987 RMK A01 T01051027  RH  040%=      5-min Rain = 0
KHA2 140036Z 23002KT 10/M03 A2987 RMK A01 T01001029  RH  040%=      5-min Rain = 0
KHA2 140037Z 23001KT 09/M02 A2987 RMK A01 T00901020  RH  046%=      5-min Rain = 0
KHA2 140038Z 25002KT 09/M01 A2987 RMK A01 T00861006  RH  052%=      5-min Rain = 0
KHA2 140039Z 25002KT 08/M00 A2987 RMK A01 T00841003  RH  054%=      5-min Rain = 0
KHA2 140040Z 25003KT 08/M00 A2987 RMK A01 T00831002  RH  055%=      5-min Rain = 0
KHA2 140041Z 24004KT 08/M00 A2987 RMK A01 T00811002  RH  056%=      5-min Rain = 0
KHA2 140042Z 24005KT 08/M00 A2987 RMK A01 T00811003  RH  055%=      5-min Rain = 0
KHA2 140043Z 24006KT 09/M00 A2987 RMK A01 T00851003  RH  054%=      5-min Rain = 0
KHA2 140044Z 24005KT 09/M01 A2987 RMK A01 T00851005  RH  053%=      5-min Rain = 0
KHA2 140045Z 24005KT 08/M01 A2987 RMK A01 T00821008  RH  053%=      5-min Rain = 0
KHA2 140046Z 24005KT 08/M01 A2987 RMK A01 T00801009  RH  053%=      5-min Rain = 0
KHA2 140047Z 24006KT 08/M01 A2987 RMK A01 T00791009  RH  054%=      5-min Rain = 0
KHA2 140048Z 24006KT 08/M01 A2987 RMK A01 T00781010  RH  054%=      5-min Rain = 0
KHA2 140049Z 24006KT 08/M01 A2987 RMK A01 T00771011  RH  054%=      5-min Rain = 0
KHA2 140050Z 24005KT 08/M01 A2987 RMK A01 T00761013  RH  053%=      5-min Rain = 0
KHA2 140051Z 24005KT 07/M02 A2987 RMK A01 T00741015  RH  053%=      5-min Rain = 0
KHA2 140052Z 25006KT 08/M02 A2987 RMK A01 T00751017  RH  052%=      5-min Rain = 0
KHA2 140053Z 25006KT 08/M02 A2987 RMK A01 T00761017  RH  052%=      5-min Rain = 0
KHA2 140054Z 25006KT 08/M02 A2987 RMK A01 T00751016  RH  053%=      5-min Rain = 0
KHA2 140055Z 25006KT 07/M02 A2987 RMK A01 T00721018  RH  053%=      5-min Rain = 0
KHA2 140056Z 25006KT 07/M02 A2987 RMK A01 T00741019  RH  052%=      5-min Rain = 0
KHA2 140057Z 25005KT 08/M02 A2987 RMK A01 T00751019  RH  051%=      5-min Rain = 0
KHA2 140058Z 25005KT 08/M02 A2987 RMK A01 T00751020  RH  051%=      5-min Rain = 0
KHA2 140059Z 25005KT 08/M02 A2987 RMK A01 T00781021  RH  049%=      5-min Rain = 0
KHA2 140100Z 25005KT 08/M02 A2987 RMK A01 T00801022  RH  049%=      5-min Rain = 0
KHA2 140101Z 24005KT 08/M02 A2987 RMK A01 T00801023  RH  048%=      5-min Rain = 0
KHA2 140102Z 24005KT 08/M02 A2987 RMK A01 T00811022  RH  048%=      5-min Rain = 0
KHA2 140103Z 24005KT 08/M02 A2987 RMK A01 T00781021  RH  050%=      5-min Rain = 0
KHA2 140104Z 24005KT 08/M02 A2987 RMK A01 T00761019  RH  051%=      5-min Rain = 0
KHA2 140105Z 24005KT 08/M02 A2987 RMK A01 T00751019  RH  051%=      5-min Rain = 0
KHA2 140106Z 24005KT 08/M02 A2987 RMK A01 T00751019  RH  052%=      5-min Rain = 0
KHA2 140107Z 24006KT 08/M02 A2986 RMK A01 T00751018  RH  052%=      5-min Rain = 0
KHA2 140108Z 24006KT 08/M02 A2987 RMK A01 T00751017  RH  052%=      5-min Rain = 0
KHA2 140109Z 24006KT 08/M02 A2987 RMK A01 T00761017  RH  052%=      5-min Rain = 0
KHA2 140110Z 24006KT 08/M02 A2987 RMK A01 T00751016  RH  052%=      5-min Rain = 0
KHA2 140111Z 25006KT 07/M02 A2987 RMK A01 T00731016  RH  053%=      5-min Rain = 0
KHA2 140112Z 25007KT 07/M02 A2987 RMK A01 T00731016  RH  053%=      5-min Rain = 0
KHA2 140113Z 25007KT 07/M02 A2987 RMK A01 T00741017  RH  052%=      5-min Rain = 0
KHA2 140114Z 25008KT 08/M02 A2987 RMK A01 T00751017  RH  052%=      5-min Rain = 0
KHA2 140115Z 25007KT 08/M02 A2987 RMK A01 T00751018  RH  052%=      5-min Rain = 0
KHA2 140116Z 25007KT 07/M02 A2987 RMK A01 T00741018  RH  052%=      5-min Rain = 0
KHA2 140117Z 25007KT 07/M02 A2987 RMK A01 T00741019  RH  052%=      5-min Rain = 0
KHA2 140118Z 25008KT 07/M02 A2987 RMK A01 T00741019  RH  052%=      5-min Rain = 0
KHA2 140119Z 25008KT 07/M02 A2987 RMK A01 T00741019  RH  052%=      5-min Rain = 0
KHA2 140120Z 25008KT 07/M02 A2986 RMK A01 T00721020  RH  052%=      5-min Rain = 0
KHA2 140121Z 25009KT 07/M02 A2986 RMK A01 T00681020  RH  053%=      5-min Rain = 0
KHA2 140122Z 25009KT 07/M02 A2986 RMK A01 T00661020  RH  054%=      5-min Rain = 0
KHA2 140123Z 25008KT 07/M02 A2986 RMK A01 T00651020  RH  054%=      5-min Rain = 0
KHA2 140124Z 25008KT 07/M02 A2986 RMK A01 T00651020  RH  055%=      5-min Rain = 0
KHA2 140125Z 26007KT 07/M02 A2986 RMK A01 T00651020  RH  055%=      5-min Rain = 0
KHA2 140126Z 26008KT 07/M02 A2987 RMK A01 T00651020  RH  055%=      5-min Rain = 0
KHA2 140127Z 26008KT 06/M02 A2987 RMK A01 T00641020  RH  055%=      5-min Rain = 0
KHA2 140128Z 26008KT 06/M02 A2987 RMK A01 T00631020  RH  055%=      5-min Rain = 0
KHA2 140129Z 26009KT 06/M02 A2987 RMK A01 T00631022  RH  054%=      5-min Rain = 0
KHA2 140130Z 26010KT 06/M02 A2987 RMK A01 T00631023  RH  054%=      5-min Rain = 0
KHA2 140131Z 25010KT 06/M03 A2987 RMK A01 T00631025  RH  053%=      5-min Rain = 0
KHA2 140132Z 25012KT 06/M03 A2987 RMK A01 T00641025  RH  053%=      5-min Rain = 0
KHA2 140133Z 25013KT 07/M02 A2987 RMK A01 T00651024  RH  053%=      5-min Rain = 0
KHA2 140134Z 26012KT 07/M02 A2987 RMK A01 T00661024  RH  052%=      5-min Rain = 0
KHA2 140135Z 26011KT 07/M02 A2987 RMK A01 T00671024  RH  052%=      5-min Rain = 0
KHA2 140136Z 26011KT 07/M02 A2987 RMK A01 T00681023  RH  052%=      5-min Rain = 0
KHA2 140137Z 26010KT 07/M02 A2987 RMK A01 T00701022  RH  052%=      5-min Rain = 0
KHA2 140138Z 26010KT 07/M02 A2987 RMK A01 T00691021  RH  052%=      5-min Rain = 0
KHA2 140139Z 26010KT 07/M02 A2987 RMK A01 T00691020  RH  053%=      5-min Rain = 0
KHA2 140140Z 26010KT 07/M02 A2987 RMK A01 T00691020  RH  053%=      5-min Rain = 0
KHA2 140141Z 26010KT 07/M02 A2987 RMK A01 T00691019  RH  054%=      5-min Rain = 0
KHA2 140142Z 26011KT 07/M02 A2987 RMK A01 T00691018  RH  054%=      5-min Rain = 0
KHA2 140143Z 26011KT 07/M02 A2987 RMK A01 T00701017  RH  054%=      5-min Rain = 0
KHA2 140144Z 26011KT 07/M02 A2987 RMK A01 T00711016  RH  054%=      5-min Rain = 0
KHA2 140145Z 26010KT 07/M02 A2987 RMK A01 T00721015  RH  054%=      5-min Rain = 0
KHA2 140146Z 26010KT 07/M02 A2987 RMK A01 T00721015  RH  054%=      5-min Rain = 0
KHA2 140147Z 26009KT 07/M01 A2987 RMK A01 T00711014  RH  054%=      5-min Rain = 0
KHA2 140148Z 26010KT 07/M01 A2987 RMK A01 T00711013  RH  055%=      5-min Rain = 0
KHA2 140149Z 26011KT 07/M01 A2987 RMK A01 T00701011  RH  056%=      5-min Rain = 0
KHA2 140150Z 26011KT 07/M01 A2986 RMK A01 T00701009  RH  057%=      5-min Rain = 0
KHA2 140151Z 26011KT 07/M01 A2986 RMK A01 T00711007  RH  058%=      5-min Rain = 0
KHA2 140152Z 26010KT 07/M01 A2986 RMK A01 T00721005  RH  058%=      5-min Rain = 0
KHA2 140153Z 26010KT 07/M01 A2986 RMK A01 T00711005  RH  058%=      5-min Rain = 0
KHA2 140154Z 26010KT 07/M01 A2986 RMK A01 T00711005  RH  058%=      5-min Rain = 0
KHA2 140155Z 26010KT 07/M01 A2986 RMK A01 T00701005  RH  059%=      5-min Rain = 0
KHA2 140156Z 26010KT 07/M00 A2986 RMK A01 T00701004  RH  059%=      5-min Rain = 0
KHA2 140157Z 26009KT 07/M00 A2986 RMK A01 T00691004  RH  060%=      5-min Rain = 0
KHA2 140158Z 26009KT 07/M00 A2986 RMK A01 T00681004  RH  060%=      5-min Rain = 0
KHA2 140159Z 26010KT 07/M00 A2986 RMK A01 T00681003  RH  060%=      5-min Rain = 0
KHA2 140200Z 26010KT 07/M00 A2986 RMK A01 T00671003  RH  061%=      5-min Rain = 0
KHA2 140201Z 26011KT 07/M00 A2986 RMK A01 T00671003  RH  061%=      5-min Rain = 0
KHA2 140202Z 26011KT 07/M00 A2986 RMK A01 T00671003  RH  061%=      5-min Rain = 0
KHA2 140203Z 26011KT 07/M00 A2986 RMK A01 T00661004  RH  061%=      5-min Rain = 0
KHA2 140204Z 26011KT 07/M00 A2986 RMK A01 T00661004  RH  061%=      5-min Rain = 0
KHA2 140205Z 26011KT 07/M00 A2986 RMK A01 T00661004  RH  061%=      5-min Rain = 0
KHA2 140206Z 27011KT 07/M01 A2986 RMK A01 T00661005  RH  060%=      5-min Rain = 0
KHA2 140207Z 27011KT 07/M01 A2986 RMK A01 T00671005  RH  060%=      5-min Rain = 0
KHA2 140208Z 27011KT 07/M01 A2986 RMK A01 T00681005  RH  059%=      5-min Rain = 0
KHA2 140209Z 27011KT 07/M01 A2986 RMK A01 T00691005  RH  059%=      5-min Rain = 0
KHA2 140210Z 27011KT 07/M01 A2986 RMK A01 T00701006  RH  058%=      5-min Rain = 0
KHA2 140211Z 27011KT 07/M01 A2986 RMK A01 T00721006  RH  058%=      5-min Rain = 0
KHA2 140212Z 27011KT 07/M01 A2986 RMK A01 T00731006  RH  057%=      5-min Rain = 0
KHA2 140213Z 26011KT 08/M01 A2986 RMK A01 T00751006  RH  057%=      5-min Rain = 0
KHA2 140214Z 26012KT 08/M01 A2986 RMK A01 T00761005  RH  056%=      5-min Rain = 0
KHA2 140215Z 26012KT 08/M01 A2986 RMK A01 T00761005  RH  056%=      5-min Rain = 0
KHA2 140216Z 26012KT 08/M00 A2986 RMK A01 T00761004  RH  057%=      5-min Rain = 0
KHA2 140217Z 26011KT 08/M00 A2986 RMK A01 T00761003  RH  057%=      5-min Rain = 0
KHA2 140218Z 26011KT 07/M00 A2986 RMK A01 T00741004  RH  058%=      5-min Rain = 0
KHA2 140219Z 27011KT 07/M00 A2986 RMK A01 T00731003  RH  058%=      5-min Rain = 0
KHA2 140220Z 26011KT 07/M00 A2986 RMK A01 T00721003  RH  059%=      5-min Rain = 0
KHA2 140221Z 27012KT 07/M00 A2986 RMK A01 T00721002  RH  059%=      5-min Rain = 0
KHA2 140222Z 26012KT 07/M00 A2986 RMK A01 T00721001  RH  060%=      5-min Rain = 0
KHA2 140223Z 27012KT 07/M00 A2986 RMK A01 T00721001  RH  060%=      5-min Rain = 0
KHA2 140224Z 27012KT 07/00 A2986 RMK A01 T00740001  RH  060%=      5-min Rain = 0
KHA2 140225Z 27011KT 08/00 A2986 RMK A01 T00760002  RH  060%=      5-min Rain = 0
KHA2 140226Z 27011KT 08/00 A2986 RMK A01 T00780003  RH  059%=      5-min Rain = 0
KHA2 140227Z 26011KT 08/00 A2986 RMK A01 T00800004  RH  059%=      5-min Rain = 0
KHA2 140228Z 27011KT 08/00 A2986 RMK A01 T00810003  RH  058%=      5-min Rain = 0
KHA2 140229Z 27012KT 08/00 A2986 RMK A01 T00810003  RH  058%=      5-min Rain = 0
KHA2 140230Z 27011KT 08/00 A2986 RMK A01 T00820003  RH  058%=      5-min Rain = 0
KHA2 140231Z 27010KT 08/00 A2986 RMK A01 T00830003  RH  057%=      5-min Rain = 0
KHA2 140232Z 27010KT 08/00 A2986 RMK A01 T00830003  RH  057%=      5-min Rain = 0
KHA2 140233Z 27010KT 08/00 A2986 RMK A01 T00830002  RH  057%=      5-min Rain = 0
KHA2 140234Z 27010KT 08/00 A2986 RMK A01 T00830002  RH  057%=      5-min Rain = 0
KHA2 140235Z 27010KT 08/00 A2986 RMK A01 T00830003  RH  057%=      5-min Rain = 0
KHA2 140236Z 27011KT 08/00 A2986 RMK A01 T00820002  RH  057%=      5-min Rain = 0
KHA2 140237Z 27012KT 08/00 A2986 RMK A01 T00830003  RH  057%=      5-min Rain = 0
KHA2 140238Z 27012KT 08/00 A2986 RMK A01 T00830003  RH  057%=      5-min Rain = 0
KHA2 140239Z 27011KT 08/00 A2986 RMK A01 T00810002  RH  058%=      5-min Rain = 0
KHA2 140240Z 27011KT 08/00 A2986 RMK A01 T00780002  RH  059%=      5-min Rain = 0
KHA2 140241Z 26011KT 08/00 A2986 RMK A01 T00760002  RH  059%=      5-min Rain = 0
KHA2 140242Z 26012KT 07/00 A2986 RMK A01 T00730001  RH  060%=      5-min Rain = 0
KHA2 140243Z 26011KT 07/00 A2986 RMK A01 T00710001  RH  061%=      5-min Rain = 0
KHA2 140244Z 27011KT 07/00 A2986 RMK A01 T00690001  RH  062%=      5-min Rain = 0
KHA2 140245Z 27011KT 07/00 A2986 RMK A01 T00680001  RH  062%=      5-min Rain = 0
KHA2 140246Z 27012KT 07/00 A2986 RMK A01 T00670001  RH  063%=      5-min Rain = 0
KHA2 140247Z 27012KT 07/00 A2986 RMK A01 T00690002  RH  062%=      5-min Rain = 0
KHA2 140248Z 28010KT 07/00 A2986 RMK A01 T00710002  RH  062%=      5-min Rain = 0
KHA2 140249Z 28009KT 07/00 A2986 RMK A01 T00720001  RH  061%=      5-min Rain = 0
KHA2 140250Z 27009KT 07/00 A2986 RMK A01 T00720001  RH  061%=      5-min Rain = 0
KHA2 140251Z 27010KT 07/00 A2986 RMK A01 T00730001  RH  060%=      5-min Rain = 0
KHA2 140252Z 27010KT 08/00 A2986 RMK A01 T00750001  RH  059%=      5-min Rain = 0
KHA2 140253Z 27009KT 08/00 A2986 RMK A01 T007900-0  RH  057%=      5-min Rain = 0
KHA2 140254Z 27009KT 08/M00 A2986 RMK A01 T00821001  RH  056%=      5-min Rain = 0
KHA2 140255Z 27009KT 08/M00 A2986 RMK A01 T00821002  RH  055%=      5-min Rain = 0
KHA2 140256Z 27009KT 08/M00 A2986 RMK A01 T00811002  RH  056%=      5-min Rain = 0
KHA2 140257Z 27009KT 08/M00 A2986 RMK A01 T00801003  RH  056%=      5-min Rain = 0
KHA2 140258Z 27008KT 08/M00 A2986 RMK A01 T00801003  RH  056%=      5-min Rain = 0
KHA2 140259Z 27008KT 08/M00 A2986 RMK A01 T00791003  RH  056%=      5-min Rain = 0
KHA2 140300Z 27008KT 08/M00 A2986 RMK A01 T00791003  RH  056%=      5-min Rain = 0
KHA2 140301Z 27008KT 08/M00 A2986 RMK A01 T00791003  RH  056%=      5-min Rain = 0
KHA2 140302Z 27008KT 08/M00 A2986 RMK A01 T00781004  RH  056%=      5-min Rain = 0
KHA2 140303Z 27007KT 08/M00 A2986 RMK A01 T00771004  RH  057%=      5-min Rain = 0
KHA2 140304Z 27009KT 07/M00 A2986 RMK A01 T00741004  RH  058%=      5-min Rain = 0
KHA2 140305Z 27008KT 07/M00 A2986 RMK A01 T00731004  RH  058%=      5-min Rain = 0
KHA2 140306Z 26009KT 07/M01 A2986 RMK A01 T00691005  RH  060%=      5-min Rain = 0
KHA2 140307Z 26009KT 06/M01 A2986 RMK A01 T00631005  RH  062%=      5-min Rain = 0
KHA2 140308Z 27010KT 06/M00 A2986 RMK A01 T00601004  RH  064%=      5-min Rain = 0
KHA2 140309Z 27009KT 06/M00 A2986 RMK A01 T00581004  RH  064%=      5-min Rain = 0
KHA2 140310Z 26009KT 06/M00 A2986 RMK A01 T00601003  RH  064%=      5-min Rain = 0
KHA2 140311Z 26010KT 06/M00 A2986 RMK A01 T00641003  RH  063%=      5-min Rain = 0
KHA2 140312Z 26010KT 06/M00 A2986 RMK A01 T00641003  RH  062%=      5-min Rain = 0
KHA2 140313Z 26011KT 06/M00 A2986 RMK A01 T00641003  RH  062%=      5-min Rain = 0
KHA2 140314Z 26011KT 06/M00 A2986 RMK A01 T00641003  RH  062%=      5-min Rain = 0
KHA2 140315Z 27011KT 06/M00 A2986 RMK A01 T00621003  RH  063%=      5-min Rain = 0
KHA2 140316Z 27010KT 06/M00 A2986 RMK A01 T00621003  RH  063%=      5-min Rain = 0
KHA2 140317Z 26010KT 06/M00 A2986 RMK A01 T00601004  RH  063%=      5-min Rain = 0
KHA2 140318Z 27009KT 06/M00 A2985 RMK A01 T00601004  RH  064%=      5-min Rain = 0
KHA2 140319Z 28009KT 06/M00 A2985 RMK A01 T00601003  RH  064%=      5-min Rain = 0
KHA2 140320Z 28008KT 06/M00 A2985 RMK A01 T00591004  RH  064%=      5-min Rain = 0
KHA2 140321Z 28008KT 06/M00 A2986 RMK A01 T00591004  RH  064%=      5-min Rain = 0
KHA2 140322Z 28008KT 06/M01 A2986 RMK A01 T00591005  RH  063%=      5-min Rain = 0
KHA2 140323Z 28009KT 06/M01 A2986 RMK A01 T00601006  RH  063%=      5-min Rain = 0
KHA2 140324Z 28009KT 06/M01 A2986 RMK A01 T00621006  RH  062%=      5-min Rain = 0
KHA2 140325Z 28009KT 07/M01 A2986 RMK A01 T00671006  RH  060%=      5-min Rain = 0
KHA2 140326Z 28011KT 07/M01 A2986 RMK A01 T00731005  RH  058%=      5-min Rain = 0
KHA2 140327Z 28010KT 08/M01 A2986 RMK A01 T00791005  RH  055%=      5-min Rain = 0
KHA2 140328Z 28009KT 08/M01 A2986 RMK A01 T00801006  RH  054%=      5-min Rain = 0
KHA2 140329Z 28008KT 08/M01 A2986 RMK A01 T00801007  RH  054%=      5-min Rain = 0
KHA2 140330Z 28008KT 08/M01 A2986 RMK A01 T00791007  RH  054%=      5-min Rain = 0
KHA2 140331Z 28007KT 08/M01 A2986 RMK A01 T00791007  RH  054%=      5-min Rain = 0
KHA2 140332Z 28007KT 08/M01 A2986 RMK A01 T00791008  RH  054%=      5-min Rain = 0
KHA2 140333Z 30005KT 08/M01 A2986 RMK A01 T00781008  RH  055%=      5-min Rain = 0
KHA2 140334Z 31004KT 07/M01 A2986 RMK A01 T00721008  RH  057%=      5-min Rain = 0
KHA2 140335Z 29003KT 07/M01 A2986 RMK A01 T00681008  RH  059%=      5-min Rain = 0
KHA2 140336Z 28003KT 07/M01 A2986 RMK A01 T00661008  RH  059%=      5-min Rain = 0
KHA2 140337Z 29003KT 07/M01 A2986 RMK A01 T00671008  RH  059%=      5-min Rain = 0
KHA2 140338Z 29003KT 07/M01 A2986 RMK A01 T00661008  RH  059%=      5-min Rain = 0
KHA2 140339Z 30003KT 06/M01 A2986 RMK A01 T00591009  RH  062%=      5-min Rain = 0
KHA2 140340Z 31002KT 05/M01 A2986 RMK A01 T00541009  RH  064%=      5-min Rain = 0
KHA2 140341Z 31003KT 05/M01 A2985 RMK A01 T00511009  RH  065%=      5-min Rain = 0
KHA2 140342Z 31002KT 05/M01 A2985 RMK A01 T00481009  RH  067%=      5-min Rain = 0
KHA2 140343Z 32003KT 05/M01 A2986 RMK A01 T00461008  RH  068%=      5-min Rain = 0
KHA2 140344Z 32004KT 04/M01 A2986 RMK A01 T00441009  RH  069%=      5-min Rain = 0
KHA2 140345Z 31005KT 04/M01 A2986 RMK A01 T00411008  RH  070%=      5-min Rain = 0
KHA2 140346Z 31005KT 04/M01 A2986 RMK A01 T00401008  RH  071%=      5-min Rain = 0
KHA2 140347Z 31005KT 04/M01 A2986 RMK A01 T00381008  RH  072%=      5-min Rain = 0
KHA2 140348Z 32005KT 04/M01 A2986 RMK A01 T00381008  RH  072%=      5-min Rain = 0
KHA2 140349Z 32004KT 04/M01 A2986 RMK A01 T00371008  RH  072%=      5-min Rain = 0
KHA2 140350Z 32004KT 04/M01 A2986 RMK A01 T00371008  RH  073%=      5-min Rain = 0
KHA2 140351Z 32005KT 04/M01 A2985 RMK A01 T00371008  RH  073%=      5-min Rain = 0
KHA2 140352Z 33005KT 04/M01 A2985 RMK A01 T00371008  RH  072%=      5-min Rain = 0
KHA2 140353Z 32004KT 04/M01 A2985 RMK A01 T00371009  RH  072%=      5-min Rain = 0
KHA2 140354Z 31004KT 04/M01 A2985 RMK A01 T00371008  RH  073%=      5-min Rain = 0
KHA2 140355Z 31003KT 04/M01 A2985 RMK A01 T00371008  RH  072%=      5-min Rain = 0
KHA2 140356Z 31003KT 04/M01 A2985 RMK A01 T00371008  RH  072%=      5-min Rain = 0
KHA2 140357Z 29003KT 04/M01 A2985 RMK A01 T00381008  RH  072%=      5-min Rain = 0
KHA2 140358Z 28002KT 04/M01 A2985 RMK A01 T00381008  RH  072%=      5-min Rain = 0
KHA2 140359Z 28003KT 04/M01 A2985 RMK A01 T00371010  RH  071%=      5-min Rain = 0
KHA2 140400Z 28003KT 04/M01 A2985 RMK A01 T00361010  RH  072%=      5-min Rain = 0
KHA2 140401Z 27002KT 04/M01 A2985 RMK A01 T00361009  RH  073%=      5-min Rain = 0
KHA2 140402Z 27002KT 04/M01 A2984 RMK A01 T00351009  RH  073%=      5-min Rain = 0
KHA2 140403Z 24002KT 03/M01 A2984 RMK A01 T00341011  RH  072%=      5-min Rain = 0
KHA2 140404Z 21002KT 03/M01 A2984 RMK A01 T00311014  RH  072%=      5-min Rain = 0
KHA2 140405Z 21002KT 03/M02 A2984 RMK A01 T00281015  RH  073%=      5-min Rain = 0
KHA2 140406Z 20003KT 03/M01 A2984 RMK A01 T00271014  RH  074%=      5-min Rain = 0
KHA2 140407Z 18004KT 03/M01 A2984 RMK A01 T00271012  RH  075%=      5-min Rain = 0
KHA2 140408Z 19004KT 03/M01 A2984 RMK A01 T00281013  RH  075%=      5-min Rain = 0
KHA2 140409Z 20004KT 03/M01 A2984 RMK A01 T00271013  RH  075%=      5-min Rain = 0
KHA2 140410Z 21005KT 03/M01 A2984 RMK A01 T00261013  RH  075%=      5-min Rain = 0
KHA2 140411Z 21004KT 03/M01 A2984 RMK A01 T00251012  RH  076%=      5-min Rain = 0
KHA2 140412Z 23005KT 02/M01 A2984 RMK A01 T00241012  RH  077%=      5-min Rain = 0
KHA2 140413Z 24005KT 02/M01 A2984 RMK A01 T00231011  RH  078%=      5-min Rain = 0
KHA2 140414Z 25006KT 02/M01 A2984 RMK A01 T00231011  RH  078%=      5-min Rain = 0
KHA2 140415Z 25006KT 02/M01 A2983 RMK A01 T00241010  RH  078%=      5-min Rain = 0
KHA2 140416Z 26007KT 03/M01 A2983 RMK A01 T00251010  RH  078%=      5-min Rain = 0
KHA2 140417Z 26008KT 03/M01 A2983 RMK A01 T00261010  RH  078%=      5-min Rain = 0
KHA2 140418Z 25008KT 03/M01 A2983 RMK A01 T00301008  RH  076%=      5-min Rain = 0
KHA2 140419Z 26008KT 03/M01 A2983 RMK A01 T00341007  RH  075%=      5-min Rain = 0
KHA2 140420Z 25008KT 04/M01 A2983 RMK A01 T00371007  RH  073%=      5-min Rain = 0
KHA2 140421Z 26008KT 04/M01 A2983 RMK A01 T00381008  RH  072%=      5-min Rain = 0
KHA2 140422Z 26008KT 04/M01 A2983 RMK A01 T00381008  RH  072%=      5-min Rain = 0
KHA2 140423Z 26007KT 04/M01 A2983 RMK A01 T00391008  RH  071%=      5-min Rain = 0
KHA2 140424Z 26008KT 04/M01 A2983 RMK A01 T00391009  RH  071%=      5-min Rain = 0
KHA2 140425Z 25008KT 04/M01 A2983 RMK A01 T00401009  RH  070%=      5-min Rain = 0
KHA2 140426Z 26009KT 04/M01 A2983 RMK A01 T00421010  RH  069%=      5-min Rain = 0
KHA2 140427Z 27009KT 04/M01 A2983 RMK A01 T00441010  RH  068%=      5-min Rain = 0
KHA2 140428Z 26009KT 05/M01 A2983 RMK A01 T00461011  RH  067%=      5-min Rain = 0
KHA2 140429Z 26009KT 05/M01 A2983 RMK A01 T00481011  RH  065%=      5-min Rain = 0
KHA2 140430Z 26009KT 05/M01 A2983 RMK A01 T00501011  RH  064%=      5-min Rain = 0
KHA2 140431Z 26009KT 05/M01 A2983 RMK A01 T00511012  RH  064%=      5-min Rain = 0
KHA2 140432Z 26009KT 05/M01 A2983 RMK A01 T00501012  RH  064%=      5-min Rain = 0
KHA2 140433Z 26010KT 05/M01 A2983 RMK A01 T00501012  RH  064%=      5-min Rain = 0
KHA2 140434Z 26011KT 05/M01 A2983 RMK A01 T00501013  RH  064%=      5-min Rain = 0
KHA2 140435Z 27011KT 05/M01 A2983 RMK A01 T00521013  RH  063%=      5-min Rain = 0
KHA2 140436Z 27010KT 05/M01 A2984 RMK A01 T00541013  RH  062%=      5-min Rain = 0
KHA2 140437Z 26011KT 06/M01 A2984 RMK A01 T00561013  RH  061%=      5-min Rain = 0
KHA2 140438Z 27011KT 06/M01 A2984 RMK A01 T00571014  RH  060%=      5-min Rain = 0
KHA2 140439Z 27010KT 06/M01 A2984 RMK A01 T00591014  RH  059%=      5-min Rain = 0
KHA2 140440Z 27010KT 06/M01 A2984 RMK A01 T00601014  RH  059%=      5-min Rain = 0
KHA2 140441Z 28010KT 06/M02 A2984 RMK A01 T00601015  RH  059%=      5-min Rain = 0
KHA2 140442Z 27010KT 06/M02 A2984 RMK A01 T00621016  RH  057%=      5-min Rain = 0
KHA2 140443Z 28010KT 07/M02 A2984 RMK A01 T00661016  RH  056%=      5-min Rain = 0
KHA2 140444Z 28010KT 07/M02 A2984 RMK A01 T00691017  RH  054%=      5-min Rain = 0
KHA2 140445Z 28010KT 07/M02 A2984 RMK A01 T00721018  RH  053%=      5-min Rain = 0
KHA2 140446Z 27011KT 07/M02 A2984 RMK A01 T00731018  RH  052%=      5-min Rain = 0
KHA2 140447Z 27011KT 08/M02 A2984 RMK A01 T00751019  RH  051%=      5-min Rain = 0
KHA2 140448Z 27011KT 08/M02 A2984 RMK A01 T00761020  RH  050%=      5-min Rain = 0
KHA2 140449Z 27010KT 08/M02 A2984 RMK A01 T00771020  RH  050%=      5-min Rain = 0
KHA2 140450Z 26011KT 08/M02 A2984 RMK A01 T00791021  RH  049%=      5-min Rain = 0
KHA2 140451Z 26011KT 08/M02 A2984 RMK A01 T00821022  RH  048%=      5-min Rain = 0
KHA2 140452Z 26011KT 08/M02 A2984 RMK A01 T00831022  RH  047%=      5-min Rain = 0
KHA2 140453Z 27011KT 08/M02 A2984 RMK A01 T00841022  RH  047%=      5-min Rain = 0
KHA2 140454Z 27011KT 08/M02 A2984 RMK A01 T00831022  RH  048%=      5-min Rain = 0
KHA2 140455Z 27011KT 08/M02 A2984 RMK A01 T00811022  RH  048%=      5-min Rain = 0
KHA2 140456Z 27012KT 08/M02 A2984 RMK A01 T00781021  RH  049%=      5-min Rain = 0
KHA2 140457Z 27012KT 07/M02 A2984 RMK A01 T00741021  RH  051%=      5-min Rain = 0
KHA2 140458Z 27011KT 07/M02 A2984 RMK A01 T00711020  RH  052%=      5-min Rain = 0
KHA2 140459Z 28010KT 07/M02 A2984 RMK A01 T00691019  RH  053%=      5-min Rain = 0
KHA2 140500Z 28009KT 07/M02 A2984 RMK A01 T00681019  RH  054%=      5-min Rain = 0
KHA2 140501Z 28010KT 07/M02 A2984 RMK A01 T00681019  RH  054%=      5-min Rain = 0
KHA2 140502Z 28009KT 07/M02 A2984 RMK A01 T00701020  RH  053%=      5-min Rain = 0
KHA2 140503Z 27010KT 07/M02 A2984 RMK A01 T00741020  RH  051%=      5-min Rain = 0
KHA2 140504Z 27009KT 08/M02 A2984 RMK A01 T00771020  RH  050%=      5-min Rain = 0
KHA2 140505Z 28008KT 08/M02 A2984 RMK A01 T00791021  RH  049%=      5-min Rain = 0
KHA2 140506Z 28009KT 08/M02 A2984 RMK A01 T00791021  RH  049%=      5-min Rain = 0
KHA2 140507Z 28010KT 08/M02 A2984 RMK A01 T00781020  RH  050%=      5-min Rain = 0
KHA2 140508Z 29011KT 08/M02 A2984 RMK A01 T00781020  RH  050%=      5-min Rain = 0
KHA2 140509Z 29009KT 08/M02 A2985 RMK A01 T00781021  RH  050%=      5-min Rain = 0
KHA2 140510Z 30005KT 08/M02 A2985 RMK A01 T00781019  RH  050%=      5-min Rain = 0
KHA2 140511Z 31007KT 08/M02 A2985 RMK A01 T00751019  RH  051%=      5-min Rain = 0
KHA2 140512Z 31006KT 07/M02 A2984 RMK A01 T00731019  RH  052%=      5-min Rain = 0
KHA2 140513Z 30006KT 07/M02 A2984 RMK A01 T00691018  RH  054%=      5-min Rain = 0
KHA2 140514Z 29006KT 07/M02 A2984 RMK A01 T00651017  RH  056%=      5-min Rain = 0
KHA2 140515Z 28005KT 06/M02 A2984 RMK A01 T00641017  RH  056%=      5-min Rain = 0
KHA2 140516Z 27005KT 06/M02 A2984 RMK A01 T00631017  RH  057%=      5-min Rain = 0
KHA2 140517Z 27004KT 06/M02 A2984 RMK A01 T00621017  RH  057%=      5-min Rain = 0
KHA2 140518Z 26005KT 06/M02 A2983 RMK A01 T00641019  RH  055%=      5-min Rain = 0
KHA2 140519Z 27007KT 07/M02 A2983 RMK A01 T00681020  RH  053%=      5-min Rain = 0
KHA2 140520Z 28006KT 07/M02 A2983 RMK A01 T00741020  RH  051%=      5-min Rain = 0
KHA2 140521Z 27006KT 08/M02 A2983 RMK A01 T00751021  RH  050%=      5-min Rain = 0
KHA2 140522Z 27006KT 08/M02 A2983 RMK A01 T00751020  RH  051%=      5-min Rain = 0
KHA2 140523Z 27007KT 07/M02 A2983 RMK A01 T00731020  RH  052%=      5-min Rain = 0
KHA2 140524Z 26006KT 07/M02 A2983 RMK A01 T00721020  RH  052%=      5-min Rain = 0
KHA2 140525Z 27005KT 07/M02 A2982 RMK A01 T00721020  RH  052%=      5-min Rain = 0
KHA2 140526Z 27005KT 07/M02 A2983 RMK A01 T00721020  RH  052%=      5-min Rain = 0
KHA2 140527Z 27005KT 07/M02 A2983 RMK A01 T00711019  RH  052%=      5-min Rain = 0
KHA2 140528Z 28005KT 07/M02 A2983 RMK A01 T00701019  RH  053%=      5-min Rain = 0
KHA2 140529Z 28006KT 07/M02 A2983 RMK A01 T00681019  RH  054%=      5-min Rain = 0
KHA2 140530Z 28006KT 07/M02 A2983 RMK A01 T00671018  RH  055%=      5-min Rain = 0
KHA2 140531Z 28005KT 07/M02 A2983 RMK A01 T00671018  RH  055%=      5-min Rain = 0
KHA2 140532Z 26004KT 07/M02 A2982 RMK A01 T00671018  RH  055%=      5-min Rain = 0
KHA2 140533Z 26005KT 07/M02 A2982 RMK A01 T00651018  RH  055%=      5-min Rain = 0
KHA2 140534Z 26006KT 06/M02 A2982 RMK A01 T00631018  RH  056%=      5-min Rain = 0
KHA2 140535Z 26006KT 06/M02 A2982 RMK A01 T00611017  RH  057%=      5-min Rain = 0
KHA2 140536Z 26005KT 06/M02 A2982 RMK A01 T00581017  RH  059%=      5-min Rain = 0
KHA2 140537Z 27005KT 05/M02 A2982 RMK A01 T00541016  RH  061%=      5-min Rain = 0
KHA2 140538Z 28005KT 05/M02 A2982 RMK A01 T00511016  RH  062%=      5-min Rain = 0
KHA2 140539Z 28005KT 05/M02 A2982 RMK A01 T00491015  RH  063%=      5-min Rain = 0
KHA2 140540Z 29005KT 05/M02 A2982 RMK A01 T00491015  RH  063%=      5-min Rain = 0
KHA2 140541Z 30005KT 05/M02 A2982 RMK A01 T00511015  RH  063%=      5-min Rain = 0
KHA2 140542Z 30006KT 05/M01 A2983 RMK A01 T00521014  RH  062%=      5-min Rain = 0
KHA2 140543Z 30006KT 05/M01 A2983 RMK A01 T00521014  RH  062%=      5-min Rain = 0
KHA2 140544Z 30007KT 05/M01 A2983 RMK A01 T00521014  RH  062%=      5-min Rain = 0
KHA2 140545Z 30007KT 05/M01 A2983 RMK A01 T00521014  RH  062%=      5-min Rain = 0
KHA2 140546Z 30007KT 05/M01 A2983 RMK A01 T00531014  RH  062%=      5-min Rain = 0
KHA2 140547Z 30007KT 05/M01 A2983 RMK A01 T00531013  RH  062%=      5-min Rain = 0
KHA2 140548Z 31008KT 05/M01 A2983 RMK A01 T00541013  RH  062%=      5-min Rain = 0
KHA2 140549Z 30010KT 05/M01 A2983 RMK A01 T00541012  RH  062%=      5-min Rain = 0
KHA2 140550Z 30010KT 05/M01 A2983 RMK A01 T00541012  RH  062%=      5-min Rain = 0
KHA2 140551Z 30011KT 05/M01 A2983 RMK A01 T00541012  RH  062%=      5-min Rain = 0
KHA2 140552Z 31011KT 06/M01 A2983 RMK A01 T00551012  RH  062%=      5-min Rain = 0
KHA2 140553Z 31012KT 05/M01 A2984 RMK A01 T00531011  RH  063%=      5-min Rain = 0
KHA2 140554Z 31012KT 05/M01 A2984 RMK A01 T00501011  RH  065%=      5-min Rain = 0
KHA2 140555Z 31012KT 05/M01 A2984 RMK A01 T00481011  RH  066%=      5-min Rain = 0
KHA2 140556Z 31014KT 05/M01 A2985 RMK A01 T00461011  RH  066%=      5-min Rain = 0
KHA2 140557Z 31014KT 05/M01 A2985 RMK A01 T00461012  RH  066%=      5-min Rain = 0
KHA2 140558Z 31013KT 05/M01 A2984 RMK A01 T00451012  RH  067%=      5-min Rain = 0
KHA2 140559Z 31012KT 05/M01 A2984 RMK A01 T00451012  RH  067%=      5-min Rain = 0

Page generated in 0.0696 seconds.